ETD121 OMAA-EDDF
Flight info
| Callsign | ETD121 |
|---|---|
| Flight time | 7h 3m |
| Altitude | 38000 |
| Route | ATUDO4K ATUDO M318 GOLGU M550 MEVDO Y511 PMA Z712 WEJ L677 CVO L617 NOZ L551 ANTAR DCT RIGRO DCT DISOR DCT LONTA UL608 DOLEV DCT KOPRY DCT SASAL DCT LNZ DCT SUBEN T161 DEBHI DEBHI1C |
| Aircraft | B789/H-SDE1E2E3FGHIJ2J3J4J5M1RWXY/LB1D1 |
Departure
| Time | 2026-04-07 12:21 |
|---|---|
| Airport | Zayed International Airport (OMAA) |
Arrival
| Time | 2026-04-07 19:24 |
|---|---|
| Airport | Frankfurt Main Airport (EDDF) |
| Time | Latitude | Longitude | Altitude | Speed | Heading |
|---|---|---|---|---|---|
| 2026-04-07 11:48 | 24.44601 | 54.64551 | 81 ft | 0 kts | 232° |
| 2026-04-07 11:52 | 24.44602 | 54.64551 | 81 ft | 0 kts | 232° |
| 2026-04-07 11:55 | 24.44602 | 54.64552 | 81 ft | 0 kts | 232° |
| 2026-04-07 12:05 | 24.44603 | 54.64553 | 86 ft | 1 kts | 232° |
| 2026-04-07 12:05 | 24.44612 | 54.64566 | 86 ft | 3 kts | 231° |
| 2026-04-07 12:05 | 24.44625 | 54.64584 | 86 ft | 3 kts | 230° |
| 2026-04-07 12:06 | 24.44635 | 54.64596 | 85 ft | 2 kts | 230° |
| 2026-04-07 12:06 | 24.44647 | 54.64609 | 85 ft | 3 kts | 193° |
| 2026-04-07 12:06 | 24.44663 | 54.64607 | 85 ft | 3 kts | 146° |
| 2026-04-07 12:06 | 24.44679 | 54.64593 | 86 ft | 3 kts | 134° |
| 2026-04-07 12:07 | 24.44686 | 54.64585 | 85 ft | 1 kts | 133° |
| 2026-04-07 12:07 | 24.44687 | 54.64584 | 85 ft | 0 kts | 133° |
| 2026-04-07 12:10 | 24.44680 | 54.64592 | 86 ft | 3 kts | 133° |
| 2026-04-07 12:10 | 24.44656 | 54.64619 | 85 ft | 7 kts | 133° |
| 2026-04-07 12:11 | 24.44624 | 54.64663 | 83 ft | 8 kts | 126° |
| 2026-04-07 12:11 | 24.44581 | 54.64716 | 87 ft | 10 kts | 149° |
| 2026-04-07 12:11 | 24.44520 | 54.64706 | 85 ft | 10 kts | 210° |
| 2026-04-07 12:11 | 24.44458 | 54.64656 | 85 ft | 12 kts | 217° |
| 2026-04-07 12:12 | 24.44391 | 54.64596 | 87 ft | 12 kts | 218° |
| 2026-04-07 12:12 | 24.44324 | 54.64539 | 86 ft | 13 kts | 218° |
| 2026-04-07 12:12 | 24.44272 | 54.64471 | 84 ft | 10 kts | 251° |
| 2026-04-07 12:12 | 24.44243 | 54.64405 | 86 ft | 10 kts | 230° |
| 2026-04-07 12:13 | 24.44188 | 54.64371 | 84 ft | 9 kts | 177° |
| 2026-04-07 12:13 | 24.44145 | 54.64406 | 84 ft | 9 kts | 133° |
| 2026-04-07 12:13 | 24.44098 | 54.64469 | 86 ft | 12 kts | 128° |
| 2026-04-07 12:13 | 24.44037 | 54.64554 | 87 ft | 16 kts | 128° |
| 2026-04-07 12:14 | 24.43963 | 54.64659 | 85 ft | 19 kts | 128° |
| 2026-04-07 12:14 | 24.43878 | 54.64778 | 84 ft | 20 kts | 128° |
| 2026-04-07 12:14 | 24.43787 | 54.64905 | 85 ft | 22 kts | 127° |
| 2026-04-07 12:14 | 24.43693 | 54.65041 | 87 ft | 23 kts | 127° |
| 2026-04-07 12:15 | 24.43602 | 54.65168 | 84 ft | 18 kts | 128° |
| 2026-04-07 12:15 | 24.43523 | 54.65278 | 86 ft | 19 kts | 127° |
| 2026-04-07 12:15 | 24.43474 | 54.65347 | 84 ft | 20 kts | 128° |
| 2026-04-07 12:15 | 24.43387 | 54.65469 | 85 ft | 21 kts | 128° |
| 2026-04-07 12:16 | 24.43294 | 54.65598 | 87 ft | 22 kts | 127° |
| 2026-04-07 12:16 | 24.43198 | 54.65736 | 84 ft | 23 kts | 127° |
| 2026-04-07 12:16 | 24.43096 | 54.65880 | 85 ft | 25 kts | 128° |
| 2026-04-07 12:16 | 24.42994 | 54.66022 | 86 ft | 22 kts | 128° |
| 2026-04-07 12:17 | 24.42900 | 54.66155 | 86 ft | 23 kts | 128° |
| 2026-04-07 12:17 | 24.42804 | 54.66291 | 86 ft | 21 kts | 128° |
| 2026-04-07 12:17 | 24.42718 | 54.66412 | 84 ft | 21 kts | 128° |
| 2026-04-07 12:17 | 24.42627 | 54.66541 | 86 ft | 22 kts | 128° |
| 2026-04-07 12:18 | 24.42531 | 54.66677 | 84 ft | 22 kts | 128° |
| 2026-04-07 12:18 | 24.42445 | 54.66765 | 84 ft | 10 kts | 175° |
| 2026-04-07 12:18 | 24.42387 | 54.66736 | 83 ft | 10 kts | 216° |
| 2026-04-07 12:18 | 24.42327 | 54.66688 | 83 ft | 12 kts | 216° |
| 2026-04-07 12:19 | 24.42270 | 54.66628 | 85 ft | 7 kts | 248° |
| 2026-04-07 12:19 | 24.42274 | 54.66578 | 83 ft | 8 kts | 290° |
| 2026-04-07 12:19 | 24.42288 | 54.66550 | 84 ft | 0 kts | 308° |
| 2026-04-07 12:20 | 24.42316 | 54.66511 | 85 ft | 24 kts | 308° |
| 2026-04-07 12:20 | 24.42556 | 54.66174 | 86 ft | 91 kts | 308° |
| 2026-04-07 12:20 | 24.43095 | 54.65413 | 88 ft | 160 kts | 308° |
| 2026-04-07 12:20 | 24.43877 | 54.64346 | 520 ft | 182 kts | 313° |
| 2026-04-07 12:21 | 24.44581 | 54.63225 | 1389 ft | 185 kts | 289° |
| 2026-04-07 12:21 | 24.44582 | 54.61783 | 2061 ft | 198 kts | 271° |
| 2026-04-07 12:21 | 24.45081 | 54.60339 | 2494 ft | 216 kts | 316° |
| 2026-04-07 12:21 | 24.46318 | 54.59466 | 3640 ft | 207 kts | 328° |
| 2026-04-07 12:22 | 24.47534 | 54.58612 | 4589 ft | 211 kts | 321° |
| 2026-04-07 12:22 | 24.48679 | 54.57549 | 4983 ft | 220 kts | 313° |
| 2026-04-07 12:22 | 24.49657 | 54.56267 | 5006 ft | 217 kts | 306° |
| 2026-04-07 12:22 | 24.50542 | 54.54937 | 4978 ft | 216 kts | 306° |
| 2026-04-07 12:23 | 24.51451 | 54.53619 | 4983 ft | 215 kts | 307° |
| 2026-04-07 12:23 | 24.52370 | 54.52328 | 4983 ft | 214 kts | 307° |
| 2026-04-07 12:23 | 24.53283 | 54.51043 | 4979 ft | 213 kts | 307° |
| 2026-04-07 12:23 | 24.54191 | 54.49761 | 5005 ft | 212 kts | 307° |
| 2026-04-07 12:24 | 24.55108 | 54.48464 | 5330 ft | 214 kts | 307° |
| 2026-04-07 12:24 | 24.56003 | 54.47198 | 6554 ft | 210 kts | 306° |
| 2026-04-07 12:24 | 24.56844 | 54.45830 | 7179 ft | 229 kts | 293° |
| 2026-04-07 12:24 | 24.57284 | 54.44092 | 7928 ft | 240 kts | 277° |
| 2026-04-07 12:25 | 24.57188 | 54.42253 | 8983 ft | 246 kts | 260° |
| 2026-04-07 12:25 | 24.56503 | 54.40499 | 9994 ft | 257 kts | 242° |
| 2026-04-07 12:25 | 24.55268 | 54.38966 | 10542 ft | 283 kts | 232° |
| 2026-04-07 12:25 | 24.53766 | 54.37403 | 10824 ft | 312 kts | 230° |
| 2026-04-07 12:26 | 24.52100 | 54.35723 | 11053 ft | 338 kts | 229° |
| 2026-04-07 12:26 | 24.50332 | 54.33904 | 11542 ft | 352 kts | 230° |
| 2026-04-07 12:26 | 24.48547 | 54.32053 | 12413 ft | 355 kts | 230° |
| 2026-04-07 12:26 | 24.46767 | 54.30204 | 13222 ft | 360 kts | 230° |
| 2026-04-07 12:27 | 24.44935 | 54.28307 | 14002 ft | 365 kts | 230° |
| 2026-04-07 12:27 | 24.43081 | 54.26391 | 14758 ft | 368 kts | 230° |
| 2026-04-07 12:27 | 24.41207 | 54.24453 | 15507 ft | 372 kts | 230° |
| 2026-04-07 12:27 | 24.39319 | 54.22500 | 16267 ft | 376 kts | 229° |
| 2026-04-07 12:28 | 24.37404 | 54.20521 | 16978 ft | 380 kts | 229° |
| 2026-04-07 12:28 | 24.35472 | 54.18526 | 17686 ft | 383 kts | 229° |
| 2026-04-07 12:28 | 24.33523 | 54.16513 | 18376 ft | 387 kts | 229° |
| 2026-04-07 12:29 | 24.29570 | 54.12434 | 19570 ft | 393 kts | 229° |
| 2026-04-07 12:29 | 24.27569 | 54.10371 | 20138 ft | 397 kts | 229° |
| 2026-04-07 12:29 | 24.25551 | 54.08292 | 20728 ft | 400 kts | 229° |
| 2026-04-07 12:29 | 24.23516 | 54.06196 | 21291 ft | 403 kts | 229° |
| 2026-04-07 12:30 | 24.21466 | 54.04085 | 21832 ft | 406 kts | 229° |
| 2026-04-07 12:30 | 24.19401 | 54.01959 | 22369 ft | 409 kts | 229° |
| 2026-04-07 12:30 | 24.17317 | 53.99815 | 22886 ft | 412 kts | 229° |
| 2026-04-07 12:30 | 24.15219 | 53.97658 | 23382 ft | 415 kts | 229° |
| 2026-04-07 12:31 | 24.13107 | 53.95487 | 23833 ft | 418 kts | 229° |
| 2026-04-07 12:31 | 24.10978 | 53.93300 | 24211 ft | 421 kts | 229° |
| 2026-04-07 12:31 | 24.08836 | 53.91101 | 24601 ft | 423 kts | 229° |
| 2026-04-07 12:31 | 24.06681 | 53.88890 | 24982 ft | 426 kts | 229° |
| 2026-04-07 12:32 | 24.04512 | 53.86665 | 25360 ft | 428 kts | 229° |
| 2026-04-07 12:32 | 24.02332 | 53.84430 | 25723 ft | 431 kts | 229° |
| 2026-04-07 12:32 | 24.00136 | 53.82179 | 26081 ft | 434 kts | 229° |
| 2026-04-07 12:32 | 23.97928 | 53.79917 | 26435 ft | 436 kts | 229° |
| 2026-04-07 12:33 | 23.95708 | 53.77645 | 26780 ft | 439 kts | 229° |
| 2026-04-07 12:33 | 23.93472 | 53.75357 | 27111 ft | 441 kts | 229° |
| 2026-04-07 12:33 | 23.91225 | 53.73059 | 27444 ft | 444 kts | 229° |
| 2026-04-07 12:33 | 23.88965 | 53.70748 | 27759 ft | 446 kts | 229° |
| 2026-04-07 12:34 | 23.86692 | 53.68426 | 28089 ft | 448 kts | 228° |
| 2026-04-07 12:34 | 23.84409 | 53.66095 | 28410 ft | 451 kts | 228° |
| 2026-04-07 12:34 | 23.82113 | 53.63751 | 28702 ft | 453 kts | 228° |
| 2026-04-07 12:34 | 23.79804 | 53.61395 | 29017 ft | 455 kts | 228° |
| 2026-04-07 12:35 | 23.77485 | 53.59030 | 29289 ft | 458 kts | 228° |
| 2026-04-07 12:35 | 23.75153 | 53.56654 | 29570 ft | 460 kts | 228° |
| 2026-04-07 12:35 | 23.72811 | 53.54266 | 29852 ft | 461 kts | 229° |
| 2026-04-07 12:35 | 23.70665 | 53.51688 | 30081 ft | 458 kts | 237° |
| 2026-04-07 12:36 | 23.68892 | 53.48821 | 30304 ft | 455 kts | 243° |
| 2026-04-07 12:36 | 23.67300 | 53.45822 | 30492 ft | 457 kts | 243° |
| 2026-04-07 12:36 | 23.65703 | 53.42820 | 30725 ft | 458 kts | 243° |
| 2026-04-07 12:36 | 23.64106 | 53.39802 | 30946 ft | 460 kts | 243° |
| 2026-04-07 12:37 | 23.63048 | 53.37801 | 31087 ft | 461 kts | 243° |
| 2026-04-07 12:37 | 23.61440 | 53.34773 | 31286 ft | 462 kts | 243° |
| 2026-04-07 12:37 | 23.59829 | 53.31745 | 31584 ft | 461 kts | 243° |
| 2026-04-07 12:37 | 23.58221 | 53.28721 | 31886 ft | 460 kts | 243° |
| 2026-04-07 12:38 | 23.56619 | 53.25705 | 32190 ft | 459 kts | 243° |
| 2026-04-07 12:38 | 23.55019 | 53.22698 | 32494 ft | 458 kts | 243° |
| 2026-04-07 12:38 | 23.53419 | 53.19693 | 32788 ft | 458 kts | 243° |
| 2026-04-07 12:38 | 23.51823 | 53.16699 | 33096 ft | 457 kts | 243° |
| 2026-04-07 12:39 | 23.50228 | 53.13706 | 33387 ft | 456 kts | 243° |
| 2026-04-07 12:39 | 23.48636 | 53.10722 | 33681 ft | 455 kts | 243° |
| 2026-04-07 12:39 | 23.47048 | 53.07745 | 33978 ft | 454 kts | 243° |
| 2026-04-07 12:39 | 23.45460 | 53.04772 | 34251 ft | 454 kts | 243° |
| 2026-04-07 12:40 | 23.43873 | 53.01802 | 34500 ft | 453 kts | 243° |
| 2026-04-07 12:40 | 23.42289 | 52.98839 | 34734 ft | 453 kts | 243° |
| 2026-04-07 12:40 | 23.40706 | 52.95878 | 34975 ft | 452 kts | 244° |
| 2026-04-07 12:40 | 23.39187 | 52.92883 | 35182 ft | 452 kts | 244° |
| 2026-04-07 12:41 | 23.37649 | 52.89905 | 35427 ft | 451 kts | 243° |
| 2026-04-07 12:41 | 23.36108 | 52.86933 | 35657 ft | 451 kts | 244° |
| 2026-04-07 12:41 | 23.34580 | 52.83951 | 35887 ft | 450 kts | 244° |
| 2026-04-07 12:41 | 23.33059 | 52.80973 | 36125 ft | 450 kts | 244° |
| 2026-04-07 12:42 | 23.31533 | 52.78003 | 36346 ft | 450 kts | 244° |
| 2026-04-07 12:42 | 23.30002 | 52.75036 | 36565 ft | 450 kts | 244° |
| 2026-04-07 12:42 | 23.28474 | 52.72068 | 36781 ft | 449 kts | 244° |
| 2026-04-07 12:42 | 23.26952 | 52.69107 | 37006 ft | 449 kts | 244° |
| 2026-04-07 12:43 | 23.25428 | 52.66147 | 37222 ft | 448 kts | 244° |
| 2026-04-07 12:43 | 23.23903 | 52.63191 | 37437 ft | 448 kts | 244° |
| 2026-04-07 12:43 | 23.22378 | 52.60236 | 37638 ft | 448 kts | 244° |
| 2026-04-07 12:43 | 23.20854 | 52.57281 | 37783 ft | 449 kts | 244° |
| 2026-04-07 12:44 | 23.19321 | 52.54313 | 37919 ft | 450 kts | 243° |
| 2026-04-07 12:44 | 23.17925 | 52.51278 | 38056 ft | 448 kts | 251° |
| 2026-04-07 12:44 | 23.16874 | 52.48086 | 38034 ft | 450 kts | 253° |
| 2026-04-07 12:45 | 23.14829 | 52.41645 | 38033 ft | 450 kts | 253° |
| 2026-04-07 12:45 | 23.12795 | 52.35222 | 38020 ft | 449 kts | 253° |
| 2026-04-07 12:46 | 23.10759 | 52.28808 | 38018 ft | 449 kts | 253° |
| 2026-04-07 12:46 | 23.08722 | 52.22401 | 38015 ft | 448 kts | 253° |
| 2026-04-07 12:47 | 23.06699 | 52.16045 | 38013 ft | 449 kts | 253° |
| 2026-04-07 12:47 | 23.04657 | 52.09641 | 38014 ft | 449 kts | 253° |
| 2026-04-07 12:48 | 23.02614 | 52.03244 | 38014 ft | 448 kts | 253° |
| 2026-04-07 12:48 | 23.00568 | 51.96848 | 38019 ft | 449 kts | 253° |
| 2026-04-07 12:49 | 22.98518 | 51.90451 | 38011 ft | 448 kts | 252° |
| 2026-04-07 12:49 | 22.96469 | 51.84066 | 38013 ft | 448 kts | 252° |
| 2026-04-07 12:50 | 22.94416 | 51.77676 | 38011 ft | 449 kts | 252° |
| 2026-04-07 12:50 | 22.92359 | 51.71286 | 38007 ft | 448 kts | 252° |
| 2026-04-07 12:51 | 22.90300 | 51.64901 | 38007 ft | 448 kts | 252° |
| 2026-04-07 12:51 | 22.88241 | 51.58524 | 38007 ft | 448 kts | 252° |
| 2026-04-07 12:52 | 22.86178 | 51.52145 | 38012 ft | 448 kts | 252° |
| 2026-04-07 12:52 | 22.84217 | 51.45731 | 38040 ft | 447 kts | 259° |
| 2026-04-07 12:53 | 22.83025 | 51.39119 | 38030 ft | 448 kts | 260° |
| 2026-04-07 12:53 | 22.81856 | 51.32490 | 38024 ft | 448 kts | 260° |
| 2026-04-07 12:54 | 22.80679 | 51.25865 | 38026 ft | 448 kts | 260° |
| 2026-04-07 12:54 | 22.79501 | 51.19237 | 38030 ft | 448 kts | 260° |
| 2026-04-07 12:55 | 22.78320 | 51.12614 | 38028 ft | 448 kts | 260° |
| 2026-04-07 12:55 | 22.77134 | 51.05989 | 38024 ft | 448 kts | 260° |
| 2026-04-07 12:56 | 22.75944 | 50.99362 | 38027 ft | 448 kts | 260° |
| 2026-04-07 12:56 | 22.74751 | 50.92734 | 38025 ft | 448 kts | 260° |
| 2026-04-07 12:57 | 22.73565 | 50.86160 | 38023 ft | 447 kts | 260° |
| 2026-04-07 12:57 | 22.72370 | 50.79550 | 38026 ft | 447 kts | 260° |
| 2026-04-07 12:58 | 22.71171 | 50.72933 | 38025 ft | 447 kts | 260° |
| 2026-04-07 12:58 | 22.69971 | 50.66331 | 38027 ft | 447 kts | 259° |
| 2026-04-07 12:59 | 22.68769 | 50.59731 | 38023 ft | 447 kts | 259° |
| 2026-04-07 12:59 | 22.67564 | 50.53131 | 38025 ft | 447 kts | 259° |
| 2026-04-07 13:00 | 22.66356 | 50.46535 | 38029 ft | 446 kts | 259° |
| 2026-04-07 13:00 | 22.65148 | 50.39948 | 38025 ft | 446 kts | 259° |
| 2026-04-07 13:01 | 22.63936 | 50.33361 | 38019 ft | 446 kts | 259° |
| 2026-04-07 13:01 | 22.62722 | 50.26779 | 38016 ft | 445 kts | 259° |
| 2026-04-07 13:02 | 22.61506 | 50.20198 | 38023 ft | 446 kts | 259° |
| 2026-04-07 13:02 | 22.60286 | 50.13610 | 38021 ft | 446 kts | 259° |
| 2026-04-07 13:03 | 22.59063 | 50.07024 | 38023 ft | 447 kts | 259° |
| 2026-04-07 13:03 | 22.57838 | 50.00441 | 38023 ft | 446 kts | 259° |
| 2026-04-07 13:04 | 22.56610 | 49.93862 | 38022 ft | 446 kts | 259° |
| 2026-04-07 13:04 | 22.55381 | 49.87287 | 38019 ft | 446 kts | 259° |
| 2026-04-07 13:05 | 22.54147 | 49.80704 | 38017 ft | 446 kts | 259° |
| 2026-04-07 13:05 | 22.53776 | 49.74038 | 38026 ft | 446 kts | 275° |
| 2026-04-07 13:06 | 22.54404 | 49.67358 | 38017 ft | 446 kts | 275° |
| 2026-04-07 13:06 | 22.55043 | 49.60680 | 38002 ft | 447 kts | 275° |
| 2026-04-07 13:07 | 22.55675 | 49.54001 | 38001 ft | 447 kts | 275° |
| 2026-04-07 13:07 | 22.56306 | 49.47319 | 38015 ft | 446 kts | 275° |
| 2026-04-07 13:08 | 22.56934 | 49.40636 | 38015 ft | 446 kts | 275° |
| 2026-04-07 13:08 | 22.57558 | 49.33962 | 38016 ft | 446 kts | 275° |
| 2026-04-07 13:09 | 22.58180 | 49.27284 | 38019 ft | 446 kts | 274° |
| 2026-04-07 13:09 | 22.58794 | 49.20656 | 38012 ft | 446 kts | 274° |
| 2026-04-07 13:10 | 22.59410 | 49.13988 | 38018 ft | 445 kts | 274° |
| 2026-04-07 13:10 | 22.60021 | 49.07328 | 38011 ft | 445 kts | 274° |
| 2026-04-07 13:11 | 22.60630 | 49.00670 | 38013 ft | 444 kts | 274° |
| 2026-04-07 13:11 | 22.61236 | 48.94015 | 38018 ft | 444 kts | 274° |
| 2026-04-07 13:12 | 22.61838 | 48.87361 | 38015 ft | 444 kts | 274° |
| 2026-04-07 13:12 | 22.62438 | 48.80709 | 38018 ft | 444 kts | 274° |
| 2026-04-07 13:13 | 22.63036 | 48.74055 | 38016 ft | 444 kts | 274° |
| 2026-04-07 13:13 | 22.63629 | 48.67409 | 38023 ft | 444 kts | 274° |
| 2026-04-07 13:14 | 22.64220 | 48.60759 | 38023 ft | 444 kts | 274° |
| 2026-04-07 13:14 | 22.64809 | 48.54111 | 38022 ft | 444 kts | 274° |
| 2026-04-07 13:15 | 22.65394 | 48.47464 | 38009 ft | 444 kts | 274° |
| 2026-04-07 13:15 | 22.65977 | 48.40813 | 38013 ft | 444 kts | 274° |
| 2026-04-07 13:16 | 22.66557 | 48.34166 | 38020 ft | 443 kts | 274° |
| 2026-04-07 13:16 | 22.67134 | 48.27523 | 38018 ft | 443 kts | 274° |
| 2026-04-07 13:17 | 22.67704 | 48.20926 | 38017 ft | 443 kts | 274° |
| 2026-04-07 13:17 | 22.68274 | 48.14287 | 38011 ft | 443 kts | 274° |
| 2026-04-07 13:18 | 22.68842 | 48.07651 | 38020 ft | 443 kts | 274° |
| 2026-04-07 13:18 | 22.69406 | 48.01018 | 38018 ft | 442 kts | 273° |
| 2026-04-07 13:19 | 22.69963 | 47.94387 | 38016 ft | 442 kts | 273° |
| 2026-04-07 13:19 | 22.70519 | 47.87758 | 38008 ft | 442 kts | 273° |
| 2026-04-07 13:20 | 22.71072 | 47.81130 | 38011 ft | 442 kts | 273° |
| 2026-04-07 13:20 | 22.71621 | 47.74509 | 38018 ft | 441 kts | 273° |
| 2026-04-07 13:21 | 22.72167 | 47.67890 | 38018 ft | 441 kts | 273° |
| 2026-04-07 13:21 | 22.72711 | 47.61274 | 38016 ft | 441 kts | 273° |
| 2026-04-07 13:22 | 22.73251 | 47.54659 | 38022 ft | 441 kts | 273° |
| 2026-04-07 13:22 | 22.73788 | 47.48052 | 38014 ft | 440 kts | 273° |
| 2026-04-07 13:23 | 22.74323 | 47.41446 | 38018 ft | 440 kts | 273° |
| 2026-04-07 13:23 | 22.74855 | 47.34826 | 38022 ft | 441 kts | 273° |
| 2026-04-07 13:24 | 22.75385 | 47.28212 | 38032 ft | 441 kts | 273° |
| 2026-04-07 13:24 | 22.75912 | 47.21593 | 38030 ft | 441 kts | 272° |
| 2026-04-07 13:25 | 22.76347 | 47.16094 | 38031 ft | 441 kts | 272° |
| 2026-04-07 13:25 | 22.76876 | 47.09477 | 38030 ft | 441 kts | 272° |
| 2026-04-07 13:26 | 22.77399 | 47.02860 | 38033 ft | 441 kts | 272° |
| 2026-04-07 13:26 | 22.77920 | 46.96249 | 38025 ft | 440 kts | 272° |
| 2026-04-07 13:27 | 22.78437 | 46.89655 | 38026 ft | 439 kts | 272° |
| 2026-04-07 13:27 | 22.78951 | 46.83063 | 38032 ft | 440 kts | 272° |
| 2026-04-07 13:28 | 22.79464 | 46.76452 | 38030 ft | 440 kts | 272° |
| 2026-04-07 13:28 | 22.79974 | 46.69841 | 38037 ft | 440 kts | 272° |
| 2026-04-07 13:29 | 22.80481 | 46.63229 | 38038 ft | 440 kts | 272° |
| 2026-04-07 13:29 | 22.80985 | 46.56619 | 38036 ft | 440 kts | 272° |
| 2026-04-07 13:30 | 22.81487 | 46.50002 | 38035 ft | 440 kts | 272° |
| 2026-04-07 13:30 | 22.81986 | 46.43382 | 38040 ft | 441 kts | 272° |
| 2026-04-07 13:31 | 22.82479 | 46.36811 | 38029 ft | 440 kts | 272° |
| 2026-04-07 13:31 | 22.82968 | 46.30213 | 38027 ft | 438 kts | 272° |
| 2026-04-07 13:32 | 22.83454 | 46.23625 | 38025 ft | 439 kts | 272° |
| 2026-04-07 13:32 | 22.83938 | 46.17034 | 38016 ft | 439 kts | 272° |
| 2026-04-07 13:33 | 22.84419 | 46.10435 | 38019 ft | 440 kts | 272° |
| 2026-04-07 13:33 | 22.85139 | 46.00502 | 38015 ft | 441 kts | 272° |
| 2026-04-07 13:34 | 22.85615 | 45.93879 | 38012 ft | 440 kts | 272° |
| 2026-04-07 13:34 | 22.86088 | 45.87261 | 38003 ft | 440 kts | 272° |
| 2026-04-07 13:35 | 22.86558 | 45.80647 | 37998 ft | 440 kts | 271° |
| 2026-04-07 13:35 | 22.87026 | 45.74031 | 38000 ft | 440 kts | 271° |
| 2026-04-07 13:36 | 22.87490 | 45.67423 | 38003 ft | 439 kts | 271° |
| 2026-04-07 13:36 | 22.87951 | 45.60821 | 37999 ft | 439 kts | 271° |
| 2026-04-07 13:37 | 22.88408 | 45.54226 | 37999 ft | 438 kts | 271° |
| 2026-04-07 13:37 | 22.88863 | 45.47640 | 37996 ft | 438 kts | 271° |
| 2026-04-07 13:38 | 22.89311 | 45.41100 | 37998 ft | 437 kts | 271° |
| 2026-04-07 13:38 | 22.89763 | 45.34472 | 37998 ft | 438 kts | 271° |
| 2026-04-07 13:39 | 22.90209 | 45.27879 | 37996 ft | 439 kts | 271° |
| 2026-04-07 13:39 | 22.90650 | 45.21328 | 37996 ft | 439 kts | 271° |
| 2026-04-07 13:40 | 22.91092 | 45.14731 | 37992 ft | 438 kts | 271° |
| 2026-04-07 13:40 | 22.91530 | 45.08142 | 37990 ft | 438 kts | 271° |
| 2026-04-07 13:41 | 22.91964 | 45.01558 | 37987 ft | 438 kts | 271° |
| 2026-04-07 13:41 | 22.92395 | 44.94974 | 37988 ft | 438 kts | 271° |
| 2026-04-07 13:42 | 22.92824 | 44.88403 | 37986 ft | 436 kts | 271° |
| 2026-04-07 13:42 | 22.93247 | 44.81847 | 37988 ft | 436 kts | 271° |
| 2026-04-07 13:43 | 22.93669 | 44.75295 | 37976 ft | 435 kts | 271° |
| 2026-04-07 13:43 | 22.94122 | 44.68742 | 37980 ft | 437 kts | 275° |
| 2026-04-07 13:44 | 22.95665 | 44.62321 | 37976 ft | 443 kts | 284° |
| 2026-04-07 13:44 | 22.97622 | 44.55968 | 37975 ft | 444 kts | 284° |
| 2026-04-07 13:45 | 22.99588 | 44.49605 | 37971 ft | 445 kts | 284° |
| 2026-04-07 13:45 | 23.01549 | 44.43236 | 37966 ft | 445 kts | 284° |
| 2026-04-07 13:46 | 23.03507 | 44.36872 | 37964 ft | 444 kts | 284° |
| 2026-04-07 13:46 | 23.05464 | 44.30499 | 37964 ft | 445 kts | 284° |
| 2026-04-07 13:47 | 23.07419 | 44.24123 | 37958 ft | 445 kts | 284° |
| 2026-04-07 13:47 | 23.09369 | 44.17754 | 37958 ft | 445 kts | 283° |
| 2026-04-07 13:48 | 23.11316 | 44.11384 | 37956 ft | 444 kts | 283° |
| 2026-04-07 13:48 | 23.13257 | 44.05023 | 37956 ft | 443 kts | 283° |
| 2026-04-07 13:49 | 23.15174 | 43.98729 | 37947 ft | 442 kts | 283° |
| 2026-04-07 13:49 | 23.17100 | 43.92398 | 37964 ft | 441 kts | 283° |
| 2026-04-07 13:50 | 23.19018 | 43.86082 | 37963 ft | 440 kts | 283° |
| 2026-04-07 13:50 | 23.20930 | 43.79776 | 37965 ft | 439 kts | 283° |
| 2026-04-07 13:51 | 23.22836 | 43.73478 | 37971 ft | 438 kts | 283° |
| 2026-04-07 13:51 | 23.24738 | 43.67184 | 37968 ft | 438 kts | 283° |
| 2026-04-07 13:52 | 23.26637 | 43.60892 | 37971 ft | 438 kts | 283° |
| 2026-04-07 13:52 | 23.28532 | 43.54599 | 37980 ft | 438 kts | 283° |
| 2026-04-07 13:53 | 23.30427 | 43.48304 | 37984 ft | 438 kts | 283° |
| 2026-04-07 13:53 | 23.32316 | 43.42013 | 37995 ft | 437 kts | 283° |
| 2026-04-07 13:54 | 23.34201 | 43.35725 | 38005 ft | 436 kts | 283° |
| 2026-04-07 13:54 | 23.36078 | 43.29455 | 38008 ft | 435 kts | 283° |
| 2026-04-07 13:55 | 23.37952 | 43.23185 | 38020 ft | 436 kts | 283° |
| 2026-04-07 13:55 | 23.39828 | 43.16900 | 38023 ft | 437 kts | 283° |
| 2026-04-07 13:56 | 23.41700 | 43.10614 | 38033 ft | 437 kts | 283° |
| 2026-04-07 13:56 | 23.43566 | 43.04319 | 38043 ft | 437 kts | 283° |
| 2026-04-07 13:57 | 23.45430 | 42.98032 | 38044 ft | 436 kts | 282° |
| 2026-04-07 13:57 | 23.47289 | 42.91742 | 38045 ft | 436 kts | 282° |
| 2026-04-07 13:58 | 23.49145 | 42.85459 | 38049 ft | 436 kts | 282° |
| 2026-04-07 13:58 | 23.50988 | 42.79206 | 38046 ft | 437 kts | 282° |
| 2026-04-07 13:59 | 23.52845 | 42.72898 | 38050 ft | 437 kts | 282° |
| 2026-04-07 13:59 | 23.54705 | 42.66592 | 38055 ft | 437 kts | 282° |
| 2026-04-07 14:00 | 23.56559 | 42.60284 | 38056 ft | 437 kts | 282° |
| 2026-04-07 14:00 | 23.58414 | 42.53966 | 38055 ft | 438 kts | 282° |
| 2026-04-07 14:01 | 23.60269 | 42.47636 | 38059 ft | 439 kts | 282° |
| 2026-04-07 14:01 | 23.62125 | 42.41294 | 38059 ft | 439 kts | 282° |
| 2026-04-07 14:02 | 23.63980 | 42.34945 | 38064 ft | 439 kts | 282° |
| 2026-04-07 14:02 | 23.65833 | 42.28590 | 38069 ft | 440 kts | 282° |
| 2026-04-07 14:03 | 23.67677 | 42.22240 | 38070 ft | 438 kts | 282° |
| 2026-04-07 14:03 | 23.69511 | 42.15904 | 38072 ft | 438 kts | 282° |
| 2026-04-07 14:04 | 23.71343 | 42.09572 | 38073 ft | 437 kts | 282° |
| 2026-04-07 14:04 | 23.73168 | 42.03250 | 38075 ft | 437 kts | 282° |
| 2026-04-07 14:05 | 23.74992 | 41.96923 | 38074 ft | 437 kts | 282° |
| 2026-04-07 14:05 | 23.76823 | 41.90599 | 38074 ft | 437 kts | 282° |
| 2026-04-07 14:06 | 23.78646 | 41.84278 | 38074 ft | 436 kts | 282° |
| 2026-04-07 14:06 | 23.80465 | 41.77967 | 38074 ft | 436 kts | 282° |
| 2026-04-07 14:07 | 23.82278 | 41.71656 | 38063 ft | 436 kts | 282° |
| 2026-04-07 14:07 | 23.84093 | 41.65327 | 38072 ft | 437 kts | 282° |
| 2026-04-07 14:08 | 23.85907 | 41.58993 | 38075 ft | 437 kts | 282° |
| 2026-04-07 14:08 | 23.87702 | 41.52703 | 38075 ft | 436 kts | 281° |
| 2026-04-07 14:09 | 23.89496 | 41.46376 | 38071 ft | 436 kts | 281° |
| 2026-04-07 14:09 | 23.91291 | 41.40055 | 38083 ft | 435 kts | 281° |
| 2026-04-07 14:10 | 23.93077 | 41.33744 | 38082 ft | 434 kts | 281° |
| 2026-04-07 14:10 | 23.94868 | 41.27437 | 38077 ft | 434 kts | 281° |
| 2026-04-07 14:11 | 23.96650 | 41.21139 | 38084 ft | 433 kts | 281° |
| 2026-04-07 14:11 | 23.98428 | 41.14850 | 38079 ft | 433 kts | 281° |
| 2026-04-07 14:12 | 24.00201 | 41.08564 | 38084 ft | 432 kts | 281° |
| 2026-04-07 14:12 | 24.01970 | 41.02284 | 38090 ft | 432 kts | 281° |
| 2026-04-07 14:13 | 24.03736 | 40.96006 | 38086 ft | 431 kts | 281° |
| 2026-04-07 14:13 | 24.05198 | 40.90796 | 38090 ft | 431 kts | 281° |
| 2026-04-07 14:14 | 24.06957 | 40.84522 | 38092 ft | 431 kts | 281° |
| 2026-04-07 14:14 | 24.08712 | 40.78252 | 38092 ft | 431 kts | 281° |
| 2026-04-07 14:15 | 24.10461 | 40.71993 | 38090 ft | 430 kts | 281° |
| 2026-04-07 14:15 | 24.12206 | 40.65738 | 38088 ft | 429 kts | 281° |
| 2026-04-07 14:16 | 24.13945 | 40.59488 | 38091 ft | 429 kts | 281° |
| 2026-04-07 14:16 | 24.15687 | 40.53242 | 38090 ft | 430 kts | 283° |
| 2026-04-07 14:17 | 24.18218 | 40.47236 | 38085 ft | 438 kts | 290° |
| 2026-04-07 14:17 | 24.21043 | 40.41326 | 38089 ft | 438 kts | 290° |
| 2026-04-07 14:18 | 24.23879 | 40.35420 | 38094 ft | 438 kts | 290° |
| 2026-04-07 14:18 | 24.26705 | 40.29512 | 38090 ft | 437 kts | 290° |
| 2026-04-07 14:19 | 24.29527 | 40.23612 | 38093 ft | 437 kts | 290° |
| 2026-04-07 14:19 | 24.32345 | 40.17710 | 38093 ft | 437 kts | 290° |
| 2026-04-07 14:20 | 24.35161 | 40.11806 | 38097 ft | 437 kts | 290° |
| 2026-04-07 14:20 | 24.37902 | 40.05929 | 38104 ft | 435 kts | 290° |
| 2026-04-07 14:21 | 24.40763 | 40.00069 | 38094 ft | 436 kts | 291° |
| 2026-04-07 14:21 | 24.43836 | 39.94300 | 38097 ft | 438 kts | 293° |
| 2026-04-07 14:22 | 24.46846 | 39.88510 | 38087 ft | 436 kts | 292° |
| 2026-04-07 14:22 | 24.49860 | 39.82735 | 38081 ft | 436 kts | 292° |
| 2026-04-07 14:23 | 24.52873 | 39.76964 | 38086 ft | 434 kts | 292° |
| 2026-04-07 14:23 | 24.55863 | 39.71214 | 38086 ft | 433 kts | 292° |
| 2026-04-07 14:24 | 24.58851 | 39.65471 | 38084 ft | 433 kts | 292° |
| 2026-04-07 14:24 | 24.61831 | 39.59731 | 38084 ft | 432 kts | 292° |
| 2026-04-07 14:25 | 24.64802 | 39.54005 | 38095 ft | 431 kts | 292° |
| 2026-04-07 14:25 | 24.67758 | 39.48301 | 38095 ft | 429 kts | 292° |
| 2026-04-07 14:26 | 24.70715 | 39.42583 | 38105 ft | 431 kts | 292° |
| 2026-04-07 14:26 | 24.73673 | 39.36866 | 38112 ft | 430 kts | 292° |
| 2026-04-07 14:27 | 24.76610 | 39.31174 | 38081 ft | 430 kts | 292° |
| 2026-04-07 14:27 | 24.79555 | 39.25463 | 38104 ft | 429 kts | 292° |
| 2026-04-07 14:28 | 24.82496 | 39.19753 | 38098 ft | 428 kts | 292° |
| 2026-04-07 14:28 | 24.85429 | 39.14051 | 38103 ft | 428 kts | 292° |
| 2026-04-07 14:29 | 24.88364 | 39.08337 | 38093 ft | 429 kts | 292° |
| 2026-04-07 14:29 | 24.91294 | 39.02628 | 38096 ft | 428 kts | 292° |
| 2026-04-07 14:30 | 24.94218 | 38.96924 | 38095 ft | 427 kts | 292° |
| 2026-04-07 14:30 | 24.97135 | 38.91226 | 38091 ft | 427 kts | 292° |
| 2026-04-07 14:31 | 25.00046 | 38.85531 | 38087 ft | 426 kts | 291° |
| 2026-04-07 14:31 | 25.02948 | 38.79845 | 38083 ft | 426 kts | 291° |
| 2026-04-07 14:32 | 25.05855 | 38.74149 | 38083 ft | 427 kts | 291° |
| 2026-04-07 14:32 | 25.08755 | 38.68457 | 38071 ft | 425 kts | 291° |
| 2026-04-07 14:33 | 25.11647 | 38.62771 | 38073 ft | 424 kts | 291° |
| 2026-04-07 14:33 | 25.14530 | 38.57099 | 38070 ft | 424 kts | 291° |
| 2026-04-07 14:34 | 25.17413 | 38.51416 | 38063 ft | 424 kts | 291° |
| 2026-04-07 14:34 | 25.20296 | 38.45731 | 38060 ft | 424 kts | 291° |
| 2026-04-07 14:35 | 25.23174 | 38.40046 | 38059 ft | 424 kts | 291° |
| 2026-04-07 14:35 | 25.26050 | 38.34359 | 38052 ft | 424 kts | 291° |
| 2026-04-07 14:36 | 25.28921 | 38.28674 | 38046 ft | 423 kts | 291° |
| 2026-04-07 14:36 | 25.31786 | 38.22993 | 38043 ft | 423 kts | 291° |
| 2026-04-07 14:37 | 25.34631 | 38.17349 | 38020 ft | 423 kts | 291° |
| 2026-04-07 14:37 | 25.37482 | 38.11681 | 38031 ft | 422 kts | 291° |
| 2026-04-07 14:38 | 25.40332 | 38.06011 | 38032 ft | 421 kts | 291° |
| 2026-04-07 14:38 | 25.43171 | 38.00354 | 38045 ft | 421 kts | 291° |
| 2026-04-07 14:39 | 25.47433 | 37.91850 | 38046 ft | 421 kts | 290° |
| 2026-04-07 14:40 | 25.50272 | 37.86178 | 38048 ft | 421 kts | 290° |
| 2026-04-07 14:40 | 25.53102 | 37.80515 | 38055 ft | 420 kts | 290° |
| 2026-04-07 14:41 | 25.55928 | 37.74852 | 38058 ft | 421 kts | 290° |
| 2026-04-07 14:41 | 25.58754 | 37.69186 | 38054 ft | 420 kts | 290° |
| 2026-04-07 14:42 | 25.61579 | 37.63510 | 38051 ft | 420 kts | 290° |
| 2026-04-07 14:42 | 25.64388 | 37.57864 | 38028 ft | 416 kts | 290° |
| 2026-04-07 14:43 | 25.67189 | 37.52218 | 38047 ft | 419 kts | 290° |
| 2026-04-07 14:43 | 25.69995 | 37.46569 | 38049 ft | 418 kts | 290° |
| 2026-04-07 14:44 | 25.72765 | 37.40975 | 38041 ft | 417 kts | 290° |
| 2026-04-07 14:44 | 25.75553 | 37.35341 | 38028 ft | 416 kts | 290° |
| 2026-04-07 14:45 | 25.78327 | 37.29711 | 37888 ft | 415 kts | 285° |
| 2026-04-07 14:45 | 25.79376 | 37.26708 | 36716 ft | 419 kts | 284° |
| 2026-04-07 14:45 | 25.80687 | 37.23867 | 36900 ft | 408 kts | 292° |
| 2026-04-07 14:45 | 25.82218 | 37.21254 | 37035 ft | 402 kts | 294° |
| 2026-04-07 14:46 | 25.83779 | 37.18679 | 37156 ft | 402 kts | 293° |
| 2026-04-07 14:46 | 25.85206 | 37.16023 | 37311 ft | 399 kts | 288° |
| 2026-04-07 14:46 | 25.86453 | 37.13277 | 37436 ft | 399 kts | 288° |
| 2026-04-07 14:46 | 25.87734 | 37.10528 | 37595 ft | 404 kts | 289° |
| 2026-04-07 14:47 | 25.89113 | 37.07799 | 37722 ft | 407 kts | 290° |
| 2026-04-07 14:47 | 25.90502 | 37.05056 | 37860 ft | 408 kts | 289° |
| 2026-04-07 14:47 | 25.91853 | 37.02284 | 38001 ft | 408 kts | 289° |
| 2026-04-07 14:48 | 25.94582 | 36.96676 | 38035 ft | 416 kts | 290° |
| 2026-04-07 14:48 | 25.97364 | 36.91031 | 38043 ft | 416 kts | 289° |
| 2026-04-07 14:49 | 26.00119 | 36.85384 | 38035 ft | 415 kts | 289° |
| 2026-04-07 14:49 | 26.02876 | 36.79751 | 38033 ft | 415 kts | 289° |
| 2026-04-07 14:50 | 26.05626 | 36.74115 | 38039 ft | 414 kts | 289° |
| 2026-04-07 14:50 | 26.08365 | 36.68498 | 38027 ft | 412 kts | 289° |
| 2026-04-07 14:51 | 26.11094 | 36.62890 | 38035 ft | 412 kts | 289° |
| 2026-04-07 14:51 | 26.13822 | 36.57282 | 38035 ft | 412 kts | 289° |
| 2026-04-07 14:52 | 26.16535 | 36.51714 | 38034 ft | 413 kts | 291° |
| 2026-04-07 14:52 | 26.19995 | 36.46462 | 38035 ft | 430 kts | 302° |
| 2026-04-07 14:53 | 26.24177 | 36.41635 | 38020 ft | 433 kts | 302° |
| 2026-04-07 14:53 | 26.28359 | 36.36813 | 38035 ft | 433 kts | 302° |
| 2026-04-07 14:54 | 26.32546 | 36.31989 | 38037 ft | 432 kts | 302° |
| 2026-04-07 14:54 | 26.36718 | 36.27171 | 38039 ft | 432 kts | 302° |
| 2026-04-07 14:55 | 26.40888 | 36.22353 | 38043 ft | 432 kts | 302° |
| 2026-04-07 14:55 | 26.45058 | 36.17529 | 38049 ft | 432 kts | 302° |
| 2026-04-07 14:56 | 26.49221 | 36.12709 | 38047 ft | 431 kts | 301° |
| 2026-04-07 14:56 | 26.53375 | 36.07891 | 38048 ft | 430 kts | 301° |
| 2026-04-07 14:57 | 26.57518 | 36.03083 | 38054 ft | 430 kts | 301° |
| 2026-04-07 14:57 | 26.61662 | 35.98267 | 38057 ft | 430 kts | 301° |
| 2026-04-07 14:58 | 26.65811 | 35.93441 | 38055 ft | 431 kts | 301° |
| 2026-04-07 14:58 | 26.69958 | 35.88613 | 38060 ft | 430 kts | 301° |
| 2026-04-07 14:59 | 26.74090 | 35.83793 | 38061 ft | 429 kts | 301° |
| 2026-04-07 14:59 | 26.78220 | 35.78973 | 38062 ft | 429 kts | 301° |
| 2026-04-07 15:00 | 26.82321 | 35.74182 | 38065 ft | 429 kts | 301° |
| 2026-04-07 15:00 | 26.86446 | 35.69357 | 38053 ft | 429 kts | 301° |
| 2026-04-07 15:01 | 26.90589 | 35.64507 | 38065 ft | 427 kts | 301° |
| 2026-04-07 15:01 | 26.94664 | 35.59729 | 38071 ft | 426 kts | 301° |
| 2026-04-07 15:02 | 26.98789 | 35.54887 | 38063 ft | 427 kts | 300° |
| 2026-04-07 15:02 | 27.02861 | 35.50104 | 38067 ft | 427 kts | 300° |
| 2026-04-07 15:03 | 27.06964 | 35.45277 | 38065 ft | 427 kts | 300° |
| 2026-04-07 15:03 | 27.11060 | 35.40456 | 38067 ft | 426 kts | 300° |
| 2026-04-07 15:04 | 27.15141 | 35.35643 | 38064 ft | 426 kts | 300° |
| 2026-04-07 15:04 | 27.19226 | 35.30823 | 38067 ft | 426 kts | 300° |
| 2026-04-07 15:05 | 27.22647 | 35.26781 | 38066 ft | 426 kts | 300° |
| 2026-04-07 15:05 | 27.26701 | 35.21986 | 38066 ft | 426 kts | 300° |
| 2026-04-07 15:06 | 27.30779 | 35.17157 | 38059 ft | 426 kts | 300° |
| 2026-04-07 15:06 | 27.34857 | 35.12323 | 38062 ft | 426 kts | 300° |
| 2026-04-07 15:07 | 27.38926 | 35.07495 | 38060 ft | 425 kts | 299° |
| 2026-04-07 15:07 | 27.42995 | 35.02660 | 38058 ft | 425 kts | 299° |
| 2026-04-07 15:08 | 27.47060 | 34.97826 | 38057 ft | 425 kts | 299° |
| 2026-04-07 15:08 | 27.51123 | 34.92994 | 38048 ft | 426 kts | 301° |
| 2026-04-07 15:09 | 27.55492 | 34.88373 | 38045 ft | 431 kts | 302° |
| 2026-04-07 15:09 | 27.59855 | 34.83750 | 38051 ft | 431 kts | 302° |
| 2026-04-07 15:10 | 27.64229 | 34.79136 | 38051 ft | 430 kts | 302° |
| 2026-04-07 15:10 | 27.68590 | 34.74518 | 38049 ft | 430 kts | 302° |
| 2026-04-07 15:11 | 27.72951 | 34.69899 | 38044 ft | 430 kts | 302° |
| 2026-04-07 15:11 | 27.77305 | 34.65281 | 38042 ft | 430 kts | 302° |
| 2026-04-07 15:12 | 27.81666 | 34.60650 | 38032 ft | 430 kts | 302° |
| 2026-04-07 15:12 | 27.86030 | 34.56011 | 38042 ft | 431 kts | 302° |
| 2026-04-07 15:13 | 27.90397 | 34.51362 | 38018 ft | 431 kts | 302° |
| 2026-04-07 15:13 | 27.94763 | 34.46712 | 38020 ft | 431 kts | 302° |
| 2026-04-07 15:14 | 27.99122 | 34.42043 | 38029 ft | 429 kts | 300° |
| 2026-04-07 15:14 | 28.01083 | 34.39566 | 38047 ft | 418 kts | 295° |
| 2026-04-07 15:14 | 28.02926 | 34.37005 | 38021 ft | 421 kts | 296° |
| 2026-04-07 15:15 | 28.06616 | 34.31922 | 38028 ft | 422 kts | 296° |
| 2026-04-07 15:15 | 28.10338 | 34.26762 | 38033 ft | 424 kts | 296° |
| 2026-04-07 15:16 | 28.14072 | 34.21594 | 38048 ft | 423 kts | 296° |
| 2026-04-07 15:16 | 28.17797 | 34.16421 | 38069 ft | 423 kts | 296° |
| 2026-04-07 15:17 | 28.21524 | 34.11247 | 38087 ft | 423 kts | 296° |
| 2026-04-07 15:17 | 28.25253 | 34.06055 | 38086 ft | 425 kts | 296° |
| 2026-04-07 15:18 | 28.28967 | 34.00892 | 38088 ft | 421 kts | 296° |
| 2026-04-07 15:18 | 28.32672 | 33.95711 | 38086 ft | 425 kts | 296° |
| 2026-04-07 15:19 | 28.36418 | 33.90492 | 38096 ft | 427 kts | 296° |
| 2026-04-07 15:19 | 28.40154 | 33.85269 | 38092 ft | 425 kts | 296° |
| 2026-04-07 15:20 | 28.43874 | 33.80060 | 38095 ft | 423 kts | 296° |
| 2026-04-07 15:20 | 28.47591 | 33.74848 | 38105 ft | 426 kts | 296° |
| 2026-04-07 15:21 | 28.51331 | 33.69606 | 38111 ft | 426 kts | 296° |
| 2026-04-07 15:21 | 28.55056 | 33.64372 | 38084 ft | 426 kts | 296° |
| 2026-04-07 15:22 | 28.58801 | 33.59128 | 38104 ft | 426 kts | 296° |
| 2026-04-07 15:22 | 28.62532 | 33.53887 | 38112 ft | 426 kts | 296° |
| 2026-04-07 15:23 | 28.66252 | 33.48646 | 38111 ft | 426 kts | 296° |
| 2026-04-07 15:23 | 28.69973 | 33.43395 | 38112 ft | 426 kts | 296° |
| 2026-04-07 15:24 | 28.73693 | 33.38139 | 38108 ft | 426 kts | 296° |
| 2026-04-07 15:24 | 28.77410 | 33.32881 | 38112 ft | 427 kts | 296° |
| 2026-04-07 15:25 | 28.81132 | 33.27610 | 38100 ft | 427 kts | 297° |
| 2026-04-07 15:25 | 28.84862 | 33.22320 | 38107 ft | 428 kts | 297° |
| 2026-04-07 15:26 | 28.88595 | 33.17020 | 38111 ft | 429 kts | 297° |
| 2026-04-07 15:26 | 28.92328 | 33.11711 | 38108 ft | 429 kts | 297° |
| 2026-04-07 15:27 | 28.96068 | 33.06388 | 38106 ft | 430 kts | 297° |
| 2026-04-07 15:27 | 28.99803 | 33.01064 | 38100 ft | 430 kts | 297° |
| 2026-04-07 15:28 | 29.03517 | 32.95763 | 38108 ft | 430 kts | 297° |
| 2026-04-07 15:28 | 29.07260 | 32.90413 | 38113 ft | 431 kts | 297° |
| 2026-04-07 15:29 | 29.11006 | 32.85053 | 38111 ft | 432 kts | 297° |
| 2026-04-07 15:29 | 29.14752 | 32.79687 | 38113 ft | 432 kts | 297° |
| 2026-04-07 15:30 | 29.18505 | 32.74302 | 38113 ft | 433 kts | 297° |
| 2026-04-07 15:30 | 29.22258 | 32.68911 | 38115 ft | 433 kts | 297° |
| 2026-04-07 15:31 | 29.26011 | 32.63513 | 38119 ft | 434 kts | 297° |
| 2026-04-07 15:31 | 29.29765 | 32.58100 | 38125 ft | 434 kts | 297° |
| 2026-04-07 15:32 | 29.33490 | 32.52661 | 38131 ft | 434 kts | 297° |
| 2026-04-07 15:32 | 29.37226 | 32.47225 | 38123 ft | 434 kts | 297° |
| 2026-04-07 15:33 | 29.40963 | 32.41767 | 38134 ft | 435 kts | 297° |
| 2026-04-07 15:33 | 29.44698 | 32.36313 | 38139 ft | 435 kts | 297° |
| 2026-04-07 15:34 | 29.48435 | 32.30843 | 38130 ft | 436 kts | 297° |
| 2026-04-07 15:34 | 29.52174 | 32.25367 | 38142 ft | 436 kts | 297° |
| 2026-04-07 15:35 | 29.55905 | 32.19895 | 38143 ft | 433 kts | 297° |
| 2026-04-07 15:35 | 29.59629 | 32.14420 | 38146 ft | 437 kts | 298° |
| 2026-04-07 15:36 | 29.63377 | 32.08911 | 38147 ft | 438 kts | 298° |
| 2026-04-07 15:36 | 29.67124 | 32.03390 | 38152 ft | 438 kts | 298° |
| 2026-04-07 15:37 | 29.70878 | 31.97853 | 38153 ft | 439 kts | 298° |
| 2026-04-07 15:37 | 29.74611 | 31.92340 | 38151 ft | 440 kts | 298° |
| 2026-04-07 15:38 | 29.78393 | 31.86743 | 38149 ft | 439 kts | 297° |
| 2026-04-07 15:38 | 29.81994 | 31.81130 | 38142 ft | 439 kts | 297° |
| 2026-04-07 15:39 | 29.85634 | 31.75472 | 38144 ft | 440 kts | 297° |
| 2026-04-07 15:39 | 29.89266 | 31.69795 | 38146 ft | 440 kts | 297° |
| 2026-04-07 15:40 | 29.92907 | 31.64117 | 38148 ft | 441 kts | 297° |
| 2026-04-07 15:40 | 29.96588 | 31.58453 | 38149 ft | 442 kts | 297° |
| 2026-04-07 15:41 | 30.00260 | 31.52758 | 38142 ft | 442 kts | 297° |
| 2026-04-07 15:41 | 30.03936 | 31.47065 | 38138 ft | 443 kts | 298° |
| 2026-04-07 15:42 | 30.07617 | 31.41351 | 38143 ft | 444 kts | 298° |
| 2026-04-07 15:42 | 30.14195 | 31.33528 | 38140 ft | 458 kts | 307° |
| 2026-04-07 15:43 | 30.18861 | 31.28509 | 38144 ft | 458 kts | 308° |
| 2026-04-07 15:43 | 30.23531 | 31.23495 | 38151 ft | 458 kts | 308° |
| 2026-04-07 15:44 | 30.28198 | 31.18468 | 38160 ft | 459 kts | 308° |
| 2026-04-07 15:44 | 30.32872 | 31.13432 | 38165 ft | 459 kts | 308° |
| 2026-04-07 15:45 | 30.37538 | 31.08394 | 38159 ft | 459 kts | 308° |
| 2026-04-07 15:45 | 30.42153 | 31.03358 | 38156 ft | 457 kts | 306° |
| 2026-04-07 15:46 | 30.44465 | 31.00841 | 38516 ft | 455 kts | 309° |
| 2026-04-07 15:46 | 30.46780 | 30.98376 | 38813 ft | 450 kts | 307° |
| 2026-04-07 15:46 | 30.49078 | 30.95898 | 38983 ft | 453 kts | 310° |
| 2026-04-07 15:46 | 30.51505 | 30.93543 | 39162 ft | 457 kts | 312° |
| 2026-04-07 15:47 | 30.53977 | 30.91227 | 39337 ft | 456 kts | 311° |
| 2026-04-07 15:47 | 30.56387 | 30.88849 | 39511 ft | 454 kts | 310° |
| 2026-04-07 15:47 | 30.58762 | 30.86438 | 39676 ft | 454 kts | 310° |
| 2026-04-07 15:47 | 30.61168 | 30.84047 | 39838 ft | 456 kts | 311° |
| 2026-04-07 15:48 | 30.63598 | 30.81677 | 40003 ft | 456 kts | 311° |
| 2026-04-07 15:48 | 30.66047 | 30.79266 | 40173 ft | 456 kts | 311° |
| 2026-04-07 15:48 | 30.68453 | 30.76867 | 40327 ft | 456 kts | 311° |
| 2026-04-07 15:48 | 30.70860 | 30.74472 | 40488 ft | 456 kts | 311° |
| 2026-04-07 15:49 | 30.73280 | 30.72079 | 40646 ft | 456 kts | 311° |
| 2026-04-07 15:49 | 30.75665 | 30.69719 | 40795 ft | 457 kts | 311° |
| 2026-04-07 15:49 | 30.78077 | 30.67321 | 40945 ft | 457 kts | 311° |
| 2026-04-07 15:49 | 30.80493 | 30.64917 | 41112 ft | 457 kts | 311° |
| 2026-04-07 15:50 | 30.82907 | 30.62517 | 41258 ft | 457 kts | 311° |
| 2026-04-07 15:50 | 30.85324 | 30.60114 | 41409 ft | 457 kts | 311° |
| 2026-04-07 15:50 | 30.87741 | 30.57707 | 41552 ft | 457 kts | 311° |
| 2026-04-07 15:50 | 30.90160 | 30.55295 | 41700 ft | 458 kts | 311° |
| 2026-04-07 15:51 | 30.92579 | 30.52883 | 41825 ft | 458 kts | 311° |
| 2026-04-07 15:51 | 30.95001 | 30.50466 | 41945 ft | 459 kts | 312° |
| 2026-04-07 15:51 | 30.99856 | 30.45616 | 42161 ft | 461 kts | 312° |
| 2026-04-07 15:52 | 31.04743 | 30.40727 | 42178 ft | 464 kts | 312° |
| 2026-04-07 15:52 | 31.08842 | 30.36626 | 42181 ft | 462 kts | 312° |
| 2026-04-07 15:53 | 31.13709 | 30.31741 | 42179 ft | 461 kts | 312° |
| 2026-04-07 15:53 | 31.18544 | 30.26886 | 42180 ft | 462 kts | 312° |
| 2026-04-07 15:54 | 31.23408 | 30.21994 | 42186 ft | 461 kts | 312° |
| 2026-04-07 15:54 | 31.28269 | 30.17098 | 42186 ft | 462 kts | 312° |
| 2026-04-07 15:55 | 31.33135 | 30.12191 | 42191 ft | 462 kts | 312° |
| 2026-04-07 15:55 | 31.37999 | 30.07279 | 42190 ft | 462 kts | 313° |
| 2026-04-07 15:56 | 31.42866 | 30.02356 | 42190 ft | 462 kts | 313° |
| 2026-04-07 15:56 | 31.47728 | 29.97432 | 42196 ft | 463 kts | 313° |
| 2026-04-07 15:57 | 31.52597 | 29.92493 | 42193 ft | 463 kts | 313° |
| 2026-04-07 15:57 | 31.57467 | 29.87546 | 42182 ft | 463 kts | 313° |
| 2026-04-07 15:58 | 31.62332 | 29.82597 | 42187 ft | 463 kts | 313° |
| 2026-04-07 15:58 | 31.67203 | 29.77636 | 42192 ft | 463 kts | 313° |
| 2026-04-07 15:59 | 31.72034 | 29.72707 | 42191 ft | 464 kts | 313° |
| 2026-04-07 15:59 | 31.76906 | 29.67730 | 42187 ft | 465 kts | 313° |
| 2026-04-07 16:00 | 31.81783 | 29.62741 | 42194 ft | 464 kts | 313° |
| 2026-04-07 16:00 | 31.86651 | 29.57754 | 42190 ft | 464 kts | 313° |
| 2026-04-07 16:01 | 31.91518 | 29.52757 | 42194 ft | 465 kts | 313° |
| 2026-04-07 16:01 | 31.96392 | 29.47751 | 42189 ft | 465 kts | 313° |
| 2026-04-07 16:02 | 32.01484 | 29.43017 | 42200 ft | 473 kts | 324° |
| 2026-04-07 16:02 | 32.07294 | 29.39286 | 42190 ft | 476 kts | 325° |
| 2026-04-07 16:03 | 32.13124 | 29.35567 | 42187 ft | 477 kts | 325° |
| 2026-04-07 16:03 | 32.18954 | 29.31847 | 42186 ft | 476 kts | 325° |
| 2026-04-07 16:04 | 32.24766 | 29.28127 | 42188 ft | 475 kts | 325° |
| 2026-04-07 16:04 | 32.30588 | 29.24394 | 42185 ft | 476 kts | 325° |
| 2026-04-07 16:05 | 32.36410 | 29.20657 | 42181 ft | 476 kts | 325° |
| 2026-04-07 16:05 | 32.42228 | 29.16916 | 42187 ft | 476 kts | 325° |
| 2026-04-07 16:06 | 32.48047 | 29.13170 | 42188 ft | 476 kts | 325° |
| 2026-04-07 16:06 | 32.53821 | 29.09446 | 42187 ft | 476 kts | 325° |
| 2026-04-07 16:07 | 32.59640 | 29.05689 | 42185 ft | 476 kts | 325° |
| 2026-04-07 16:07 | 32.65460 | 29.01924 | 42182 ft | 477 kts | 325° |
| 2026-04-07 16:08 | 32.71282 | 28.98153 | 42184 ft | 477 kts | 325° |
| 2026-04-07 16:08 | 32.77096 | 28.94381 | 42184 ft | 476 kts | 325° |
| 2026-04-07 16:09 | 32.82920 | 28.90597 | 42182 ft | 477 kts | 325° |
| 2026-04-07 16:09 | 32.88739 | 28.86812 | 42179 ft | 477 kts | 325° |
| 2026-04-07 16:10 | 32.94559 | 28.83018 | 42180 ft | 477 kts | 325° |
| 2026-04-07 16:10 | 33.00373 | 28.79224 | 42179 ft | 477 kts | 325° |
| 2026-04-07 16:11 | 33.06187 | 28.75425 | 42183 ft | 476 kts | 325° |
| 2026-04-07 16:11 | 33.11995 | 28.71622 | 42165 ft | 477 kts | 325° |
| 2026-04-07 16:12 | 33.17804 | 28.67814 | 42168 ft | 476 kts | 326° |
| 2026-04-07 16:12 | 33.23615 | 28.63998 | 42175 ft | 477 kts | 326° |
| 2026-04-07 16:13 | 33.29425 | 28.60178 | 42174 ft | 476 kts | 326° |
| 2026-04-07 16:13 | 33.35231 | 28.56353 | 42183 ft | 476 kts | 326° |
| 2026-04-07 16:14 | 33.41033 | 28.52526 | 42172 ft | 476 kts | 326° |
| 2026-04-07 16:14 | 33.46798 | 28.48718 | 42178 ft | 476 kts | 326° |
| 2026-04-07 16:15 | 33.52593 | 28.44883 | 42173 ft | 475 kts | 326° |
| 2026-04-07 16:15 | 33.58383 | 28.41046 | 42175 ft | 476 kts | 325° |
| 2026-04-07 16:16 | 33.64218 | 28.37173 | 42178 ft | 476 kts | 326° |
| 2026-04-07 16:16 | 33.69976 | 28.33346 | 42171 ft | 476 kts | 325° |
| 2026-04-07 16:17 | 33.75769 | 28.29488 | 42163 ft | 477 kts | 326° |
| 2026-04-07 16:17 | 33.81615 | 28.25703 | 42181 ft | 479 kts | 328° |
| 2026-04-07 16:18 | 33.87589 | 28.22119 | 42165 ft | 480 kts | 328° |
| 2026-04-07 16:18 | 33.93572 | 28.18526 | 42167 ft | 480 kts | 328° |
| 2026-04-07 16:19 | 33.99544 | 28.14938 | 42168 ft | 479 kts | 328° |
| 2026-04-07 16:19 | 34.05504 | 28.11346 | 42160 ft | 479 kts | 328° |
| 2026-04-07 16:20 | 34.11459 | 28.07755 | 42166 ft | 479 kts | 328° |
| 2026-04-07 16:20 | 34.17416 | 28.04154 | 42165 ft | 479 kts | 328° |
| 2026-04-07 16:21 | 34.23388 | 28.00541 | 42162 ft | 480 kts | 328° |
| 2026-04-07 16:21 | 34.29357 | 27.96922 | 42164 ft | 479 kts | 328° |
| 2026-04-07 16:22 | 34.35312 | 27.93307 | 42162 ft | 478 kts | 328° |
| 2026-04-07 16:22 | 34.41254 | 27.89694 | 42161 ft | 478 kts | 328° |
| 2026-04-07 16:23 | 34.47194 | 27.86076 | 42160 ft | 478 kts | 328° |
| 2026-04-07 16:23 | 34.53134 | 27.82452 | 42156 ft | 478 kts | 328° |
| 2026-04-07 16:24 | 34.59066 | 27.78828 | 42157 ft | 477 kts | 328° |
| 2026-04-07 16:24 | 34.64990 | 27.75203 | 42156 ft | 477 kts | 328° |
| 2026-04-07 16:25 | 34.70916 | 27.71569 | 42149 ft | 478 kts | 328° |
| 2026-04-07 16:25 | 34.76847 | 27.67929 | 42154 ft | 477 kts | 328° |
| 2026-04-07 16:26 | 34.82775 | 27.64283 | 42150 ft | 477 kts | 328° |
| 2026-04-07 16:26 | 34.88652 | 27.60663 | 42153 ft | 477 kts | 328° |
| 2026-04-07 16:27 | 34.94581 | 27.57004 | 42148 ft | 478 kts | 328° |
| 2026-04-07 16:27 | 35.00522 | 27.53333 | 42149 ft | 480 kts | 328° |
| 2026-04-07 16:28 | 35.06474 | 27.49649 | 42149 ft | 479 kts | 328° |
| 2026-04-07 16:28 | 35.12418 | 27.45964 | 42149 ft | 479 kts | 328° |
| 2026-04-07 16:29 | 35.18356 | 27.42276 | 42145 ft | 478 kts | 328° |
| 2026-04-07 16:29 | 35.24285 | 27.38588 | 42146 ft | 478 kts | 328° |
| 2026-04-07 16:30 | 35.30206 | 27.34899 | 42141 ft | 477 kts | 328° |
| 2026-04-07 16:30 | 35.36121 | 27.31208 | 42144 ft | 477 kts | 328° |
| 2026-04-07 16:31 | 35.42037 | 27.27509 | 42127 ft | 477 kts | 329° |
| 2026-04-07 16:31 | 35.47950 | 27.23806 | 42128 ft | 477 kts | 329° |
| 2026-04-07 16:32 | 35.53859 | 27.20100 | 42134 ft | 477 kts | 329° |
| 2026-04-07 16:32 | 35.59776 | 27.16383 | 42137 ft | 478 kts | 328° |
| 2026-04-07 16:33 | 35.65697 | 27.12656 | 42141 ft | 478 kts | 329° |
| 2026-04-07 16:33 | 35.71623 | 27.08921 | 42137 ft | 478 kts | 329° |
| 2026-04-07 16:34 | 35.77547 | 27.05180 | 42138 ft | 479 kts | 329° |
| 2026-04-07 16:34 | 35.83487 | 27.01423 | 42141 ft | 480 kts | 329° |
| 2026-04-07 16:35 | 35.89387 | 26.97685 | 42140 ft | 480 kts | 329° |
| 2026-04-07 16:35 | 35.95318 | 26.93921 | 42141 ft | 479 kts | 329° |
| 2026-04-07 16:36 | 36.01246 | 26.90152 | 42134 ft | 480 kts | 329° |
| 2026-04-07 16:36 | 36.07180 | 26.86374 | 42140 ft | 480 kts | 329° |
| 2026-04-07 16:37 | 36.13125 | 26.82581 | 42138 ft | 481 kts | 329° |
| 2026-04-07 16:37 | 36.19076 | 26.78778 | 42139 ft | 481 kts | 329° |
| 2026-04-07 16:38 | 36.25026 | 26.74970 | 42137 ft | 481 kts | 329° |
| 2026-04-07 16:38 | 36.30960 | 26.71165 | 42137 ft | 480 kts | 329° |
| 2026-04-07 16:39 | 36.36886 | 26.67358 | 42136 ft | 479 kts | 330° |
| 2026-04-07 16:39 | 36.42810 | 26.63547 | 42132 ft | 480 kts | 330° |
| 2026-04-07 16:40 | 36.48738 | 26.59727 | 42136 ft | 480 kts | 330° |
| 2026-04-07 16:40 | 36.54666 | 26.55899 | 42136 ft | 480 kts | 330° |
| 2026-04-07 16:41 | 36.60592 | 26.52066 | 42132 ft | 480 kts | 330° |
| 2026-04-07 16:41 | 36.65515 | 26.48877 | 42132 ft | 480 kts | 330° |
| 2026-04-07 16:42 | 36.72408 | 26.44404 | 42132 ft | 481 kts | 330° |
| 2026-04-07 16:42 | 36.78344 | 26.40544 | 42135 ft | 482 kts | 330° |
| 2026-04-07 16:43 | 36.83328 | 26.37298 | 42132 ft | 483 kts | 330° |
| 2026-04-07 16:43 | 36.89272 | 26.33422 | 42131 ft | 481 kts | 330° |
| 2026-04-07 16:44 | 36.95198 | 26.29549 | 42137 ft | 480 kts | 330° |
| 2026-04-07 16:44 | 37.01107 | 26.25681 | 42131 ft | 479 kts | 330° |
| 2026-04-07 16:45 | 37.07021 | 26.21803 | 42125 ft | 480 kts | 330° |
| 2026-04-07 16:45 | 37.12941 | 26.17914 | 42127 ft | 480 kts | 330° |
| 2026-04-07 16:46 | 37.18811 | 26.14051 | 42129 ft | 479 kts | 330° |
| 2026-04-07 16:46 | 37.24720 | 26.10156 | 42126 ft | 480 kts | 330° |
| 2026-04-07 16:47 | 37.30642 | 26.06244 | 42133 ft | 482 kts | 330° |
| 2026-04-07 16:47 | 37.36572 | 26.02321 | 42131 ft | 481 kts | 330° |
| 2026-04-07 16:48 | 37.42484 | 25.98403 | 42125 ft | 479 kts | 330° |
| 2026-04-07 16:49 | 37.51333 | 25.92524 | 42130 ft | 480 kts | 330° |
| 2026-04-07 16:49 | 37.57233 | 25.88596 | 42129 ft | 479 kts | 330° |
| 2026-04-07 16:50 | 37.62930 | 25.84269 | 42122 ft | 479 kts | 326° |
| 2026-04-07 16:50 | 37.68570 | 25.79751 | 42120 ft | 481 kts | 326° |
| 2026-04-07 16:51 | 37.74215 | 25.75216 | 42115 ft | 481 kts | 326° |
| 2026-04-07 16:51 | 37.79853 | 25.70679 | 42121 ft | 480 kts | 326° |
| 2026-04-07 16:52 | 37.85486 | 25.66138 | 42125 ft | 480 kts | 326° |
| 2026-04-07 16:52 | 37.91120 | 25.61587 | 42109 ft | 481 kts | 326° |
| 2026-04-07 16:53 | 37.96760 | 25.57024 | 42108 ft | 482 kts | 326° |
| 2026-04-07 16:53 | 38.02402 | 25.52449 | 42109 ft | 481 kts | 326° |
| 2026-04-07 16:54 | 38.08032 | 25.47876 | 42108 ft | 480 kts | 326° |
| 2026-04-07 16:54 | 38.13659 | 25.43298 | 42108 ft | 481 kts | 326° |
| 2026-04-07 16:55 | 38.19291 | 25.38707 | 42108 ft | 482 kts | 326° |
| 2026-04-07 16:55 | 38.24926 | 25.34104 | 42103 ft | 481 kts | 326° |
| 2026-04-07 16:56 | 38.30550 | 25.29503 | 42104 ft | 480 kts | 326° |
| 2026-04-07 16:56 | 38.36130 | 25.24928 | 42104 ft | 481 kts | 326° |
| 2026-04-07 16:57 | 38.41757 | 25.20306 | 42103 ft | 481 kts | 326° |
| 2026-04-07 16:57 | 38.47391 | 25.15670 | 42105 ft | 482 kts | 326° |
| 2026-04-07 16:58 | 38.53029 | 25.11023 | 42099 ft | 483 kts | 326° |
| 2026-04-07 16:58 | 38.58665 | 25.06367 | 42096 ft | 481 kts | 326° |
| 2026-04-07 16:59 | 38.64281 | 25.01720 | 42088 ft | 480 kts | 326° |
| 2026-04-07 16:59 | 38.69884 | 24.97074 | 42083 ft | 479 kts | 326° |
| 2026-04-07 17:00 | 38.75477 | 24.92429 | 42080 ft | 479 kts | 326° |
| 2026-04-07 17:00 | 38.81070 | 24.87773 | 42080 ft | 480 kts | 326° |
| 2026-04-07 17:01 | 38.86667 | 24.83106 | 42086 ft | 481 kts | 326° |
| 2026-04-07 17:01 | 38.92286 | 24.78412 | 42097 ft | 482 kts | 326° |
| 2026-04-07 17:02 | 38.97912 | 24.73703 | 42086 ft | 483 kts | 326° |
| 2026-04-07 17:02 | 39.03529 | 24.68992 | 42088 ft | 482 kts | 326° |
| 2026-04-07 17:03 | 39.09128 | 24.64287 | 42081 ft | 480 kts | 326° |
| 2026-04-07 17:03 | 39.14681 | 24.59613 | 42076 ft | 480 kts | 326° |
| 2026-04-07 17:04 | 39.20264 | 24.54904 | 42072 ft | 480 kts | 326° |
| 2026-04-07 17:04 | 39.25841 | 24.50190 | 42068 ft | 479 kts | 326° |
| 2026-04-07 17:05 | 39.31415 | 24.45470 | 42067 ft | 479 kts | 326° |
| 2026-04-07 17:05 | 39.36986 | 24.40744 | 42068 ft | 479 kts | 326° |
| 2026-04-07 17:06 | 39.42547 | 24.36016 | 42067 ft | 478 kts | 326° |
| 2026-04-07 17:06 | 39.48107 | 24.31280 | 42069 ft | 479 kts | 326° |
| 2026-04-07 17:07 | 39.53669 | 24.26535 | 42064 ft | 479 kts | 326° |
| 2026-04-07 17:07 | 39.59229 | 24.21781 | 42064 ft | 479 kts | 326° |
| 2026-04-07 17:08 | 39.64780 | 24.17025 | 42060 ft | 477 kts | 326° |
| 2026-04-07 17:08 | 39.70315 | 24.12274 | 42055 ft | 477 kts | 326° |
| 2026-04-07 17:09 | 39.75844 | 24.07519 | 42057 ft | 476 kts | 326° |
| 2026-04-07 17:09 | 39.81363 | 24.02763 | 42056 ft | 476 kts | 326° |
| 2026-04-07 17:10 | 39.86884 | 23.97995 | 42061 ft | 476 kts | 326° |
| 2026-04-07 17:10 | 39.92398 | 23.93226 | 42055 ft | 475 kts | 326° |
| 2026-04-07 17:11 | 39.97904 | 23.88453 | 42055 ft | 475 kts | 326° |
| 2026-04-07 17:11 | 40.03407 | 23.83673 | 42052 ft | 476 kts | 326° |
| 2026-04-07 17:12 | 40.08914 | 23.78881 | 42047 ft | 476 kts | 326° |
| 2026-04-07 17:12 | 40.14379 | 23.74116 | 42044 ft | 475 kts | 326° |
| 2026-04-07 17:13 | 40.19863 | 23.69324 | 42038 ft | 474 kts | 326° |
| 2026-04-07 17:13 | 40.25338 | 23.64531 | 42034 ft | 473 kts | 326° |
| 2026-04-07 17:14 | 40.30802 | 23.59738 | 42034 ft | 473 kts | 325° |
| 2026-04-07 17:14 | 40.36274 | 23.54929 | 42033 ft | 474 kts | 325° |
| 2026-04-07 17:15 | 40.41752 | 23.50105 | 42033 ft | 474 kts | 325° |
| 2026-04-07 17:15 | 40.47232 | 23.45269 | 42028 ft | 475 kts | 325° |
| 2026-04-07 17:16 | 40.52711 | 23.40425 | 42027 ft | 475 kts | 325° |
| 2026-04-07 17:16 | 40.58187 | 23.35574 | 42020 ft | 474 kts | 325° |
| 2026-04-07 17:17 | 40.63647 | 23.30726 | 42014 ft | 473 kts | 325° |
| 2026-04-07 17:17 | 40.69099 | 23.25877 | 42013 ft | 473 kts | 325° |
| 2026-04-07 17:18 | 40.74545 | 23.21023 | 42012 ft | 472 kts | 325° |
| 2026-04-07 17:18 | 40.79980 | 23.16169 | 42011 ft | 471 kts | 325° |
| 2026-04-07 17:19 | 40.85402 | 23.11317 | 42011 ft | 470 kts | 325° |
| 2026-04-07 17:19 | 40.90813 | 23.06465 | 42014 ft | 470 kts | 325° |
| 2026-04-07 17:20 | 40.96222 | 23.01606 | 42017 ft | 470 kts | 325° |
| 2026-04-07 17:20 | 41.01626 | 22.96741 | 42020 ft | 469 kts | 325° |
| 2026-04-07 17:21 | 41.07019 | 22.91876 | 42019 ft | 469 kts | 325° |
| 2026-04-07 17:21 | 41.12410 | 22.87002 | 42021 ft | 469 kts | 325° |
| 2026-04-07 17:22 | 41.17792 | 22.82127 | 42022 ft | 468 kts | 325° |
| 2026-04-07 17:22 | 41.23170 | 22.77243 | 42021 ft | 468 kts | 324° |
| 2026-04-07 17:22 | 41.25644 | 22.74462 | 42044 ft | 467 kts | 313° |
| 2026-04-07 17:23 | 41.27851 | 22.71282 | 42014 ft | 468 kts | 313° |
| 2026-04-07 17:23 | 41.32233 | 22.64858 | 42026 ft | 469 kts | 313° |
| 2026-04-07 17:24 | 41.36591 | 22.58479 | 42030 ft | 468 kts | 313° |
| 2026-04-07 17:24 | 41.40965 | 22.52054 | 42026 ft | 468 kts | 312° |
| 2026-04-07 17:25 | 41.45329 | 22.45632 | 42035 ft | 467 kts | 313° |
| 2026-04-07 17:25 | 41.49690 | 22.39199 | 42033 ft | 467 kts | 312° |
| 2026-04-07 17:26 | 41.54037 | 22.32774 | 42029 ft | 466 kts | 312° |
| 2026-04-07 17:26 | 41.58372 | 22.26354 | 42030 ft | 466 kts | 312° |
| 2026-04-07 17:27 | 41.62710 | 22.19914 | 42028 ft | 466 kts | 312° |
| 2026-04-07 17:27 | 41.67044 | 22.13466 | 42028 ft | 466 kts | 312° |
| 2026-04-07 17:28 | 41.71369 | 22.07017 | 42026 ft | 465 kts | 312° |
| 2026-04-07 17:28 | 41.75687 | 22.00566 | 42027 ft | 465 kts | 312° |
| 2026-04-07 17:29 | 41.79997 | 21.94112 | 42026 ft | 465 kts | 312° |
| 2026-04-07 17:29 | 41.84306 | 21.87646 | 42030 ft | 465 kts | 312° |
| 2026-04-07 17:30 | 41.88610 | 21.81171 | 42031 ft | 465 kts | 312° |
| 2026-04-07 17:30 | 41.92877 | 21.74739 | 42020 ft | 455 kts | 312° |
| 2026-04-07 17:31 | 41.97064 | 21.68415 | 42017 ft | 453 kts | 312° |
| 2026-04-07 17:31 | 42.00550 | 21.63139 | 42015 ft | 455 kts | 312° |
| 2026-04-07 17:32 | 42.04759 | 21.56756 | 42024 ft | 456 kts | 312° |
| 2026-04-07 17:32 | 42.08967 | 21.50361 | 42020 ft | 456 kts | 312° |
| 2026-04-07 17:33 | 42.13171 | 21.43957 | 42025 ft | 456 kts | 312° |
| 2026-04-07 17:33 | 42.17358 | 21.37549 | 42035 ft | 455 kts | 311° |
| 2026-04-07 17:34 | 42.21435 | 21.31008 | 42051 ft | 456 kts | 311° |
| 2026-04-07 17:34 | 42.25556 | 21.24503 | 42060 ft | 456 kts | 311° |
| 2026-04-07 17:35 | 42.29653 | 21.17971 | 42065 ft | 455 kts | 311° |
| 2026-04-07 17:35 | 42.33747 | 21.11450 | 42076 ft | 455 kts | 311° |
| 2026-04-07 17:36 | 42.37837 | 21.04914 | 42075 ft | 456 kts | 311° |
| 2026-04-07 17:36 | 42.41904 | 20.98403 | 42077 ft | 456 kts | 311° |
| 2026-04-07 17:37 | 42.45995 | 20.91839 | 42078 ft | 456 kts | 311° |
| 2026-04-07 17:37 | 42.50081 | 20.85266 | 42076 ft | 456 kts | 311° |
| 2026-04-07 17:38 | 42.54158 | 20.78694 | 42072 ft | 455 kts | 311° |
| 2026-04-07 17:38 | 42.58228 | 20.72120 | 42070 ft | 455 kts | 311° |
| 2026-04-07 17:39 | 42.62296 | 20.65533 | 42069 ft | 455 kts | 311° |
| 2026-04-07 17:39 | 42.66354 | 20.58947 | 42067 ft | 454 kts | 311° |
| 2026-04-07 17:40 | 42.70415 | 20.52343 | 42062 ft | 456 kts | 311° |
| 2026-04-07 17:40 | 42.74478 | 20.45720 | 42073 ft | 456 kts | 311° |
| 2026-04-07 17:41 | 42.78535 | 20.39091 | 42080 ft | 455 kts | 310° |
| 2026-04-07 17:41 | 42.82620 | 20.32504 | 42097 ft | 455 kts | 317° |
| 2026-04-07 17:42 | 42.87629 | 20.27263 | 42094 ft | 455 kts | 326° |
| 2026-04-07 17:42 | 42.92884 | 20.22436 | 42097 ft | 455 kts | 326° |
| 2026-04-07 17:43 | 42.98138 | 20.17611 | 42102 ft | 455 kts | 326° |
| 2026-04-07 17:43 | 43.03394 | 20.12767 | 42098 ft | 455 kts | 326° |
| 2026-04-07 17:44 | 43.08606 | 20.07957 | 42101 ft | 455 kts | 326° |
| 2026-04-07 17:44 | 43.13855 | 20.03101 | 42101 ft | 456 kts | 326° |
| 2026-04-07 17:45 | 43.19103 | 19.98237 | 42102 ft | 456 kts | 326° |
| 2026-04-07 17:45 | 43.24347 | 19.93365 | 42101 ft | 455 kts | 326° |
| 2026-04-07 17:46 | 43.29580 | 19.88494 | 42098 ft | 454 kts | 326° |
| 2026-04-07 17:46 | 43.34806 | 19.83618 | 42102 ft | 454 kts | 326° |
| 2026-04-07 17:47 | 43.40032 | 19.78733 | 42099 ft | 454 kts | 326° |
| 2026-04-07 17:47 | 43.45242 | 19.73852 | 42104 ft | 453 kts | 326° |
| 2026-04-07 17:48 | 43.50451 | 19.68961 | 42101 ft | 453 kts | 326° |
| 2026-04-07 17:48 | 43.55652 | 19.64068 | 42100 ft | 452 kts | 326° |
| 2026-04-07 17:49 | 43.60847 | 19.59170 | 42101 ft | 452 kts | 326° |
| 2026-04-07 17:49 | 43.66038 | 19.54265 | 42404 ft | 451 kts | 325° |
| 2026-04-07 17:49 | 43.68629 | 19.51814 | 42557 ft | 451 kts | 325° |
| 2026-04-07 17:50 | 43.71219 | 19.49360 | 42698 ft | 452 kts | 325° |
| 2026-04-07 17:50 | 43.73814 | 19.46898 | 42825 ft | 452 kts | 325° |
| 2026-04-07 17:50 | 43.76410 | 19.44434 | 42965 ft | 453 kts | 325° |
| 2026-04-07 17:51 | 43.81616 | 19.39484 | 43088 ft | 456 kts | 325° |
| 2026-04-07 17:51 | 43.86852 | 19.34494 | 43093 ft | 455 kts | 325° |
| 2026-04-07 17:52 | 43.92051 | 19.29529 | 43099 ft | 453 kts | 325° |
| 2026-04-07 17:52 | 43.97232 | 19.24570 | 43099 ft | 452 kts | 325° |
| 2026-04-07 17:53 | 44.02403 | 19.19610 | 43108 ft | 452 kts | 325° |
| 2026-04-07 17:53 | 44.10149 | 19.12160 | 43096 ft | 451 kts | 325° |
| 2026-04-07 17:54 | 44.15311 | 19.07183 | 43106 ft | 451 kts | 325° |
| 2026-04-07 17:54 | 44.20472 | 19.02194 | 43107 ft | 452 kts | 325° |
| 2026-04-07 17:55 | 44.25640 | 18.97188 | 43109 ft | 452 kts | 325° |
| 2026-04-07 17:55 | 44.30796 | 18.92184 | 43109 ft | 451 kts | 325° |
| 2026-04-07 17:56 | 44.35942 | 18.87178 | 43108 ft | 451 kts | 325° |
| 2026-04-07 17:56 | 44.41087 | 18.82162 | 43108 ft | 451 kts | 325° |
| 2026-04-07 17:57 | 44.46228 | 18.77138 | 43103 ft | 451 kts | 324° |
| 2026-04-07 17:57 | 44.51368 | 18.72106 | 43106 ft | 450 kts | 324° |
| 2026-04-07 17:58 | 44.56501 | 18.67069 | 43108 ft | 450 kts | 324° |
| 2026-04-07 17:58 | 44.61628 | 18.62026 | 43104 ft | 450 kts | 324° |
| 2026-04-07 17:59 | 44.66754 | 18.56974 | 43102 ft | 450 kts | 324° |
| 2026-04-07 17:59 | 44.71872 | 18.51917 | 43107 ft | 450 kts | 324° |
| 2026-04-07 18:00 | 44.76987 | 18.46854 | 43119 ft | 449 kts | 324° |
| 2026-04-07 18:00 | 44.82097 | 18.41784 | 43106 ft | 449 kts | 324° |
| 2026-04-07 18:01 | 44.87199 | 18.36710 | 43108 ft | 449 kts | 324° |
| 2026-04-07 18:01 | 44.92296 | 18.31630 | 43122 ft | 449 kts | 324° |
| 2026-04-07 18:02 | 44.97394 | 18.26538 | 43114 ft | 449 kts | 324° |
| 2026-04-07 18:02 | 45.02494 | 18.21433 | 43122 ft | 449 kts | 324° |
| 2026-04-07 18:03 | 45.07556 | 18.16354 | 43120 ft | 449 kts | 324° |
| 2026-04-07 18:03 | 45.12643 | 18.11239 | 43117 ft | 449 kts | 324° |
| 2026-04-07 18:04 | 45.17729 | 18.06114 | 43121 ft | 448 kts | 324° |
| 2026-04-07 18:04 | 45.22805 | 18.00987 | 43119 ft | 447 kts | 324° |
| 2026-04-07 18:05 | 45.27870 | 17.95860 | 43129 ft | 447 kts | 324° |
| 2026-04-07 18:05 | 45.32932 | 17.90724 | 43125 ft | 447 kts | 324° |
| 2026-04-07 18:06 | 45.37991 | 17.85580 | 43123 ft | 447 kts | 324° |
| 2026-04-07 18:06 | 45.43048 | 17.80426 | 43125 ft | 447 kts | 324° |
| 2026-04-07 18:07 | 45.48110 | 17.75256 | 43127 ft | 448 kts | 324° |
| 2026-04-07 18:07 | 45.53176 | 17.70070 | 43127 ft | 448 kts | 324° |
| 2026-04-07 18:08 | 45.58239 | 17.64875 | 43135 ft | 448 kts | 324° |
| 2026-04-07 18:08 | 45.63298 | 17.59673 | 43136 ft | 448 kts | 324° |
| 2026-04-07 18:09 | 45.68355 | 17.54460 | 43142 ft | 448 kts | 324° |
| 2026-04-07 18:09 | 45.73405 | 17.49243 | 43133 ft | 447 kts | 324° |
| 2026-04-07 18:10 | 45.78426 | 17.44045 | 43128 ft | 444 kts | 324° |
| 2026-04-07 18:10 | 45.83442 | 17.38839 | 43136 ft | 446 kts | 324° |
| 2026-04-07 18:11 | 45.88466 | 17.33614 | 43130 ft | 446 kts | 324° |
| 2026-04-07 18:11 | 45.93479 | 17.28388 | 43133 ft | 445 kts | 324° |
| 2026-04-07 18:12 | 45.98488 | 17.23154 | 43138 ft | 445 kts | 324° |
| 2026-04-07 18:12 | 46.03485 | 17.17920 | 43138 ft | 444 kts | 324° |
| 2026-04-07 18:13 | 46.08477 | 17.12681 | 43139 ft | 444 kts | 324° |
| 2026-04-07 18:13 | 46.13469 | 17.07428 | 43145 ft | 444 kts | 324° |
| 2026-04-07 18:14 | 46.18460 | 17.02165 | 43141 ft | 444 kts | 324° |
| 2026-04-07 18:14 | 46.23533 | 16.97075 | 43189 ft | 444 kts | 332° |
| 2026-04-07 18:15 | 46.27902 | 16.94503 | 43163 ft | 447 kts | 341° |
| 2026-04-07 18:15 | 46.33397 | 16.91976 | 43157 ft | 445 kts | 341° |
| 2026-04-07 18:16 | 46.39316 | 16.89255 | 43158 ft | 448 kts | 341° |
| 2026-04-07 18:16 | 46.45228 | 16.86524 | 43164 ft | 449 kts | 341° |
| 2026-04-07 18:17 | 46.51176 | 16.83775 | 43161 ft | 448 kts | 341° |
| 2026-04-07 18:17 | 46.57099 | 16.81028 | 43167 ft | 446 kts | 341° |
| 2026-04-07 18:18 | 46.63000 | 16.78287 | 43168 ft | 445 kts | 341° |
| 2026-04-07 18:18 | 46.67940 | 16.75987 | 43167 ft | 444 kts | 341° |
| 2026-04-07 18:19 | 46.73822 | 16.73242 | 43168 ft | 443 kts | 341° |
| 2026-04-07 18:19 | 46.79650 | 16.70517 | 43179 ft | 442 kts | 341° |
| 2026-04-07 18:20 | 46.85503 | 16.67773 | 43174 ft | 442 kts | 341° |
| 2026-04-07 18:20 | 46.91350 | 16.65026 | 43177 ft | 441 kts | 341° |
| 2026-04-07 18:21 | 46.97193 | 16.62275 | 43177 ft | 441 kts | 341° |
| 2026-04-07 18:21 | 47.03037 | 16.59517 | 43177 ft | 442 kts | 341° |
| 2026-04-07 18:22 | 47.08895 | 16.56746 | 43175 ft | 443 kts | 341° |
| 2026-04-07 18:22 | 47.14765 | 16.53963 | 43180 ft | 444 kts | 341° |
| 2026-04-07 18:23 | 47.20655 | 16.51163 | 43179 ft | 445 kts | 341° |
| 2026-04-07 18:23 | 47.26275 | 16.47460 | 43201 ft | 444 kts | 325° |
| 2026-04-07 18:24 | 47.30833 | 16.41352 | 43203 ft | 447 kts | 308° |
| 2026-04-07 18:24 | 47.34214 | 16.33640 | 43190 ft | 449 kts | 303° |
| 2026-04-07 18:25 | 47.37464 | 16.25769 | 43190 ft | 449 kts | 303° |
| 2026-04-07 18:25 | 47.40598 | 16.17803 | 43187 ft | 449 kts | 301° |
| 2026-04-07 18:26 | 47.43648 | 16.09746 | 43182 ft | 450 kts | 302° |
| 2026-04-07 18:26 | 47.46732 | 16.01684 | 43184 ft | 451 kts | 301° |
| 2026-04-07 18:27 | 47.49798 | 15.93588 | 43197 ft | 451 kts | 302° |
| 2026-04-07 18:27 | 47.52869 | 15.85485 | 43195 ft | 452 kts | 302° |
| 2026-04-07 18:28 | 47.55905 | 15.77433 | 43191 ft | 450 kts | 301° |
| 2026-04-07 18:28 | 47.58954 | 15.69331 | 43198 ft | 451 kts | 302° |
| 2026-04-07 18:29 | 47.61995 | 15.61223 | 43204 ft | 449 kts | 301° |
| 2026-04-07 18:29 | 47.65020 | 15.53132 | 43198 ft | 448 kts | 301° |
| 2026-04-07 18:30 | 47.68038 | 15.45037 | 43202 ft | 448 kts | 301° |
| 2026-04-07 18:30 | 47.71049 | 15.36937 | 43204 ft | 449 kts | 301° |
| 2026-04-07 18:31 | 47.74060 | 15.28810 | 43212 ft | 449 kts | 301° |
| 2026-04-07 18:31 | 47.77070 | 15.20660 | 43211 ft | 449 kts | 301° |
| 2026-04-07 18:32 | 47.80075 | 15.12503 | 43224 ft | 450 kts | 301° |
| 2026-04-07 18:32 | 47.83078 | 15.04320 | 43231 ft | 451 kts | 301° |
| 2026-04-07 18:33 | 47.86079 | 14.96122 | 43231 ft | 451 kts | 301° |
| 2026-04-07 18:33 | 47.89082 | 14.87891 | 43227 ft | 452 kts | 301° |
| 2026-04-07 18:34 | 47.92080 | 14.79648 | 43228 ft | 453 kts | 301° |
| 2026-04-07 18:34 | 47.95076 | 14.71384 | 43228 ft | 453 kts | 301° |
| 2026-04-07 18:35 | 47.98071 | 14.63097 | 43232 ft | 454 kts | 301° |
| 2026-04-07 18:35 | 48.01057 | 14.54811 | 43232 ft | 453 kts | 301° |
| 2026-04-07 18:36 | 48.04040 | 14.46505 | 43234 ft | 453 kts | 301° |
| 2026-04-07 18:36 | 48.07014 | 14.38199 | 43229 ft | 453 kts | 300° |
| 2026-04-07 18:37 | 48.09987 | 14.29869 | 43232 ft | 454 kts | 300° |
| 2026-04-07 18:37 | 48.12947 | 14.21547 | 43232 ft | 453 kts | 300° |
| 2026-04-07 18:38 | 48.15889 | 14.13253 | 43234 ft | 455 kts | 300° |
| 2026-04-07 18:38 | 48.18852 | 14.04870 | 43234 ft | 456 kts | 300° |
| 2026-04-07 18:39 | 48.21810 | 13.96476 | 43221 ft | 455 kts | 300° |
| 2026-04-07 18:39 | 48.23292 | 13.92262 | 43054 ft | 458 kts | 300° |
| 2026-04-07 18:39 | 48.24773 | 13.88040 | 42994 ft | 457 kts | 300° |
| 2026-04-07 18:40 | 48.27733 | 13.79585 | 42855 ft | 458 kts | 300° |
| 2026-04-07 18:40 | 48.30689 | 13.71114 | 42569 ft | 460 kts | 300° |
| 2026-04-07 18:41 | 48.32166 | 13.66869 | 42263 ft | 457 kts | 300° |
| 2026-04-07 18:41 | 48.33626 | 13.62664 | 41951 ft | 452 kts | 300° |
| 2026-04-07 18:41 | 48.35071 | 13.58498 | 41613 ft | 447 kts | 300° |
| 2026-04-07 18:41 | 48.36500 | 13.54376 | 41309 ft | 443 kts | 300° |
| 2026-04-07 18:42 | 48.37922 | 13.50268 | 41003 ft | 442 kts | 300° |
| 2026-04-07 18:42 | 48.39334 | 13.46179 | 40707 ft | 442 kts | 300° |
| 2026-04-07 18:42 | 48.40751 | 13.42070 | 40433 ft | 442 kts | 301° |
| 2026-04-07 18:42 | 48.42158 | 13.37979 | 40264 ft | 438 kts | 301° |
| 2026-04-07 18:43 | 48.44520 | 13.29496 | 40267 ft | 443 kts | 294° |
| 2026-04-07 18:43 | 48.46670 | 13.20710 | 40260 ft | 450 kts | 293° |
| 2026-04-07 18:44 | 48.48805 | 13.11817 | 40264 ft | 451 kts | 294° |
| 2026-04-07 18:44 | 48.50953 | 13.02929 | 40267 ft | 452 kts | 293° |
| 2026-04-07 18:45 | 48.53085 | 12.94012 | 40269 ft | 451 kts | 293° |
| 2026-04-07 18:45 | 48.55214 | 12.85104 | 40266 ft | 452 kts | 293° |
| 2026-04-07 18:46 | 48.57335 | 12.76174 | 40264 ft | 452 kts | 293° |
| 2026-04-07 18:46 | 48.59453 | 12.67232 | 40266 ft | 453 kts | 293° |
| 2026-04-07 18:47 | 48.61566 | 12.58270 | 40267 ft | 453 kts | 293° |
| 2026-04-07 18:47 | 48.63673 | 12.49300 | 40263 ft | 453 kts | 293° |
| 2026-04-07 18:48 | 48.65772 | 12.40320 | 40266 ft | 453 kts | 293° |
| 2026-04-07 18:48 | 48.67864 | 12.31338 | 40263 ft | 453 kts | 293° |
| 2026-04-07 18:49 | 48.69949 | 12.22347 | 40260 ft | 453 kts | 292° |
| 2026-04-07 18:49 | 48.72030 | 12.13336 | 40258 ft | 453 kts | 292° |
| 2026-04-07 18:50 | 48.74104 | 12.04314 | 40256 ft | 454 kts | 292° |
| 2026-04-07 18:50 | 48.76176 | 11.95266 | 40257 ft | 454 kts | 292° |
| 2026-04-07 18:51 | 48.78242 | 11.86205 | 40254 ft | 455 kts | 292° |
| 2026-04-07 18:51 | 48.80295 | 11.77164 | 39884 ft | 453 kts | 292° |
| 2026-04-07 18:52 | 48.81317 | 11.72649 | 39552 ft | 452 kts | 292° |
| 2026-04-07 18:52 | 48.82334 | 11.68146 | 39244 ft | 451 kts | 292° |
| 2026-04-07 18:52 | 48.83348 | 11.63647 | 38741 ft | 452 kts | 292° |
| 2026-04-07 18:52 | 48.84350 | 11.59194 | 38043 ft | 451 kts | 292° |
| 2026-04-07 18:53 | 48.85358 | 11.54698 | 37363 ft | 449 kts | 292° |
| 2026-04-07 18:53 | 48.86358 | 11.50227 | 36724 ft | 446 kts | 292° |
| 2026-04-07 18:53 | 48.87352 | 11.45782 | 36088 ft | 444 kts | 292° |
| 2026-04-07 18:53 | 48.88344 | 11.41338 | 35465 ft | 445 kts | 292° |
| 2026-04-07 18:54 | 48.89338 | 11.36875 | 34879 ft | 448 kts | 292° |
| 2026-04-07 18:54 | 48.90338 | 11.32369 | 34296 ft | 452 kts | 292° |
| 2026-04-07 18:54 | 48.91342 | 11.27833 | 33651 ft | 454 kts | 292° |
| 2026-04-07 18:54 | 48.92351 | 11.23267 | 32773 ft | 457 kts | 292° |
| 2026-04-07 18:55 | 48.93353 | 11.18719 | 32280 ft | 449 kts | 292° |
| 2026-04-07 18:55 | 48.94333 | 11.14260 | 32293 ft | 444 kts | 292° |
| 2026-04-07 18:55 | 48.96926 | 11.05646 | 32310 ft | 454 kts | 307° |
| 2026-04-07 18:56 | 48.98864 | 11.01893 | 31318 ft | 452 kts | 316° |
| 2026-04-07 18:56 | 49.01193 | 10.98588 | 29791 ft | 463 kts | 320° |
| 2026-04-07 18:56 | 49.03518 | 10.95350 | 29671 ft | 444 kts | 319° |
| 2026-04-07 18:57 | 49.05399 | 10.92704 | 29401 ft | 448 kts | 319° |
| 2026-04-07 18:57 | 49.07705 | 10.89447 | 29025 ft | 454 kts | 319° |
| 2026-04-07 18:57 | 49.10018 | 10.86180 | 28648 ft | 450 kts | 319° |
| 2026-04-07 18:57 | 49.12307 | 10.82946 | 28276 ft | 448 kts | 319° |
| 2026-04-07 18:58 | 49.14589 | 10.79719 | 27896 ft | 446 kts | 319° |
| 2026-04-07 18:58 | 49.16856 | 10.76506 | 27529 ft | 443 kts | 319° |
| 2026-04-07 18:58 | 49.19109 | 10.73307 | 27164 ft | 441 kts | 319° |
| 2026-04-07 18:58 | 49.21263 | 10.69987 | 26796 ft | 439 kts | 316° |
| 2026-04-07 18:59 | 49.23390 | 10.66642 | 26433 ft | 438 kts | 316° |
| 2026-04-07 18:59 | 49.25513 | 10.63320 | 26073 ft | 435 kts | 316° |
| 2026-04-07 18:59 | 49.27619 | 10.60003 | 25705 ft | 433 kts | 316° |
| 2026-04-07 18:59 | 49.29712 | 10.56691 | 25354 ft | 431 kts | 316° |
| 2026-04-07 19:00 | 49.31794 | 10.53396 | 25001 ft | 429 kts | 316° |
| 2026-04-07 19:00 | 49.33867 | 10.50120 | 24653 ft | 427 kts | 316° |
| 2026-04-07 19:00 | 49.35905 | 10.46824 | 24332 ft | 425 kts | 311° |
| 2026-04-07 19:00 | 49.37635 | 10.43180 | 24292 ft | 423 kts | 307° |
| 2026-04-07 19:01 | 49.39347 | 10.39477 | 24297 ft | 427 kts | 307° |
| 2026-04-07 19:01 | 49.41057 | 10.35745 | 24297 ft | 427 kts | 307° |
| 2026-04-07 19:01 | 49.44460 | 10.28251 | 24293 ft | 428 kts | 307° |
| 2026-04-07 19:02 | 49.46171 | 10.24498 | 24295 ft | 428 kts | 307° |
| 2026-04-07 19:02 | 49.47873 | 10.20754 | 24295 ft | 428 kts | 307° |
| 2026-04-07 19:02 | 49.49579 | 10.16989 | 24301 ft | 429 kts | 307° |
| 2026-04-07 19:02 | 49.51283 | 10.13223 | 24307 ft | 427 kts | 307° |
| 2026-04-07 19:03 | 49.52954 | 10.09526 | 23834 ft | 418 kts | 307° |
| 2026-04-07 19:03 | 49.54614 | 10.05853 | 23143 ft | 417 kts | 307° |
| 2026-04-07 19:03 | 49.56261 | 10.02201 | 22468 ft | 414 kts | 307° |
| 2026-04-07 19:03 | 49.57899 | 9.98563 | 21809 ft | 411 kts | 307° |
| 2026-04-07 19:04 | 49.59523 | 9.94950 | 21177 ft | 408 kts | 307° |
| 2026-04-07 19:04 | 49.61134 | 9.91364 | 20552 ft | 406 kts | 307° |
| 2026-04-07 19:04 | 49.62193 | 9.89000 | 20135 ft | 404 kts | 307° |
| 2026-04-07 19:04 | 49.63783 | 9.85451 | 19543 ft | 400 kts | 307° |
| 2026-04-07 19:05 | 49.65359 | 9.81930 | 18957 ft | 397 kts | 307° |
| 2026-04-07 19:05 | 49.66919 | 9.78438 | 18337 ft | 394 kts | 307° |
| 2026-04-07 19:05 | 49.68469 | 9.74965 | 17675 ft | 391 kts | 307° |
| 2026-04-07 19:05 | 49.70502 | 9.70401 | 16817 ft | 388 kts | 307° |
| 2026-04-07 19:06 | 49.71530 | 9.68091 | 16247 ft | 385 kts | 307° |
| 2026-04-07 19:06 | 49.73536 | 9.63577 | 15094 ft | 383 kts | 307° |
| 2026-04-07 19:06 | 49.74551 | 9.61291 | 14547 ft | 380 kts | 307° |
| 2026-04-07 19:06 | 49.76039 | 9.57930 | 13686 ft | 377 kts | 307° |
| 2026-04-07 19:07 | 49.77510 | 9.54609 | 12820 ft | 373 kts | 307° |
| 2026-04-07 19:07 | 49.78971 | 9.51304 | 12003 ft | 369 kts | 307° |
| 2026-04-07 19:07 | 49.80408 | 9.48049 | 11380 ft | 362 kts | 306° |
| 2026-04-07 19:07 | 49.81789 | 9.44914 | 11313 ft | 356 kts | 307° |
| 2026-04-07 19:08 | 49.83204 | 9.41708 | 11320 ft | 363 kts | 306° |
| 2026-04-07 19:08 | 49.84632 | 9.38464 | 11316 ft | 365 kts | 306° |
| 2026-04-07 19:08 | 49.86036 | 9.35108 | 11278 ft | 368 kts | 299° |
| 2026-04-07 19:08 | 49.86901 | 9.31366 | 11302 ft | 370 kts | 290° |
| 2026-04-07 19:09 | 49.87618 | 9.27720 | 11302 ft | 372 kts | 289° |
| 2026-04-07 19:09 | 49.88332 | 9.23865 | 11298 ft | 372 kts | 288° |
| 2026-04-07 19:09 | 49.89055 | 9.20008 | 11297 ft | 372 kts | 289° |
| 2026-04-07 19:09 | 49.89796 | 9.16163 | 11298 ft | 372 kts | 289° |
| 2026-04-07 19:10 | 49.90534 | 9.12323 | 11294 ft | 373 kts | 289° |
| 2026-04-07 19:10 | 49.91254 | 9.08520 | 11294 ft | 372 kts | 289° |
| 2026-04-07 19:10 | 49.91982 | 9.04659 | 11279 ft | 372 kts | 289° |
| 2026-04-07 19:10 | 49.92714 | 9.00807 | 11237 ft | 373 kts | 289° |
| 2026-04-07 19:11 | 49.93450 | 8.96971 | 11024 ft | 365 kts | 289° |
| 2026-04-07 19:11 | 49.94162 | 8.93249 | 10986 ft | 361 kts | 289° |
| 2026-04-07 19:11 | 49.94881 | 8.89480 | 10890 ft | 359 kts | 289° |
| 2026-04-07 19:11 | 49.95564 | 8.85864 | 10685 ft | 339 kts | 289° |
| 2026-04-07 19:12 | 49.96204 | 8.82472 | 10659 ft | 316 kts | 289° |
| 2026-04-07 19:12 | 49.96807 | 8.79291 | 10433 ft | 306 kts | 289° |
| 2026-04-07 19:12 | 49.97309 | 8.76654 | 10009 ft | 306 kts | 289° |
| 2026-04-07 19:12 | 49.97410 | 8.76125 | 9917 ft | 305 kts | 289° |
| 2026-04-07 19:13 | 49.97724 | 8.74454 | 9641 ft | 302 kts | 288° |
| 2026-04-07 19:13 | 49.97935 | 8.71228 | 9131 ft | 304 kts | 265° |
| 2026-04-07 19:13 | 49.97386 | 8.68046 | 8590 ft | 305 kts | 251° |
| 2026-04-07 19:13 | 49.96647 | 8.64963 | 8081 ft | 303 kts | 251° |
| 2026-04-07 19:14 | 49.95904 | 8.61955 | 7993 ft | 296 kts | 251° |
| 2026-04-07 19:14 | 49.95197 | 8.59038 | 7983 ft | 282 kts | 251° |
| 2026-04-07 19:14 | 49.94523 | 8.56213 | 7977 ft | 278 kts | 251° |
| 2026-04-07 19:14 | 49.93851 | 8.53414 | 7984 ft | 276 kts | 251° |
| 2026-04-07 19:15 | 49.93186 | 8.50672 | 7979 ft | 262 kts | 251° |
| 2026-04-07 19:15 | 49.92554 | 8.48063 | 7980 ft | 256 kts | 251° |
| 2026-04-07 19:15 | 49.91940 | 8.45513 | 7721 ft | 252 kts | 251° |
| 2026-04-07 19:15 | 49.91326 | 8.42956 | 7316 ft | 252 kts | 251° |
| 2026-04-07 19:16 | 49.90714 | 8.40420 | 6966 ft | 250 kts | 251° |
| 2026-04-07 19:16 | 49.90104 | 8.37900 | 6585 ft | 249 kts | 250° |
| 2026-04-07 19:16 | 49.89496 | 8.35389 | 6216 ft | 247 kts | 250° |
| 2026-04-07 19:16 | 49.88895 | 8.32907 | 5859 ft | 245 kts | 250° |
| 2026-04-07 19:17 | 49.88296 | 8.30435 | 5480 ft | 244 kts | 250° |
| 2026-04-07 19:17 | 49.87700 | 8.27980 | 5125 ft | 242 kts | 249° |
| 2026-04-07 19:17 | 49.87107 | 8.25545 | 4754 ft | 241 kts | 249° |
| 2026-04-07 19:17 | 49.86589 | 8.23089 | 4326 ft | 241 kts | 260° |
| 2026-04-07 19:18 | 49.86545 | 8.20516 | 3984 ft | 236 kts | 281° |
| 2026-04-07 19:18 | 49.87361 | 8.18420 | 3989 ft | 233 kts | 325° |
| 2026-04-07 19:18 | 49.88846 | 8.17650 | 3994 ft | 230 kts | 5° |
| 2026-04-07 19:18 | 49.90307 | 8.18503 | 4005 ft | 227 kts | 36° |
| 2026-04-07 19:19 | 49.91534 | 8.20049 | 4007 ft | 227 kts | 42° |
| 2026-04-07 19:19 | 49.92709 | 8.21683 | 4007 ft | 227 kts | 43° |
| 2026-04-07 19:19 | 49.93878 | 8.23329 | 4005 ft | 226 kts | 43° |
| 2026-04-07 19:19 | 49.95043 | 8.24976 | 4001 ft | 227 kts | 43° |
| 2026-04-07 19:20 | 49.96187 | 8.26663 | 3930 ft | 228 kts | 51° |
| 2026-04-07 19:20 | 49.96834 | 8.28876 | 3663 ft | 222 kts | 71° |
| 2026-04-07 19:20 | 49.97398 | 8.31066 | 3402 ft | 213 kts | 69° |
| 2026-04-07 19:20 | 49.97900 | 8.33158 | 3108 ft | 201 kts | 70° |
| 2026-04-07 19:21 | 49.98376 | 8.35148 | 2834 ft | 192 kts | 70° |
| 2026-04-07 19:21 | 49.98830 | 8.37049 | 2565 ft | 183 kts | 70° |
| 2026-04-07 19:21 | 49.99261 | 8.38853 | 2339 ft | 172 kts | 69° |
| 2026-04-07 19:21 | 49.99671 | 8.40573 | 2091 ft | 170 kts | 69° |
| 2026-04-07 19:22 | 50.00085 | 8.42301 | 1866 ft | 171 kts | 69° |
| 2026-04-07 19:22 | 50.00496 | 8.43995 | 1634 ft | 159 kts | 69° |
| 2026-04-07 19:22 | 50.00854 | 8.45498 | 1424 ft | 139 kts | 69° |
| 2026-04-07 19:22 | 50.01186 | 8.46895 | 1226 ft | 137 kts | 68° |
| 2026-04-07 19:23 | 50.01520 | 8.48282 | 1043 ft | 137 kts | 68° |
| 2026-04-07 19:23 | 50.01856 | 8.49678 | 865 ft | 138 kts | 68° |
| 2026-04-07 19:23 | 50.02193 | 8.51083 | 676 ft | 139 kts | 70° |
| 2026-04-07 19:23 | 50.02524 | 8.52476 | 513 ft | 137 kts | 66° |
| 2026-04-07 19:24 | 50.02859 | 8.53860 | 360 ft | 132 kts | 67° |
| 2026-04-07 19:24 | 50.03122 | 8.54952 | 352 ft | 79 kts | 69° |
| 2026-04-07 19:24 | 50.03268 | 8.55556 | 354 ft | 45 kts | 64° |
| 2026-04-07 19:24 | 50.03397 | 8.55809 | 358 ft | 22 kts | 39° |
| 2026-04-07 19:25 | 50.03431 | 8.55851 | 360 ft | 0 kts | 39° |
| 2026-04-07 19:26 | 50.03442 | 8.55866 | 358 ft | 7 kts | 39° |
| 2026-04-07 19:26 | 50.03493 | 8.55931 | 360 ft | 11 kts | 39° |
| 2026-04-07 19:26 | 50.03549 | 8.56003 | 363 ft | 10 kts | 41° |
| 2026-04-07 19:26 | 50.03606 | 8.56079 | 365 ft | 12 kts | 40° |
| 2026-04-07 19:27 | 50.03665 | 8.56193 | 364 ft | 16 kts | 66° |
| 2026-04-07 19:27 | 50.03704 | 8.56361 | 363 ft | 17 kts | 70° |
| 2026-04-07 19:27 | 50.03745 | 8.56536 | 365 ft | 18 kts | 69° |
| 2026-04-07 19:27 | 50.03790 | 8.56717 | 362 ft | 18 kts | 69° |
| 2026-04-07 19:28 | 50.03834 | 8.56899 | 366 ft | 18 kts | 70° |
| 2026-04-07 19:28 | 50.03876 | 8.57080 | 366 ft | 17 kts | 70° |
| 2026-04-07 19:28 | 50.03915 | 8.57242 | 368 ft | 15 kts | 69° |
| 2026-04-07 19:28 | 50.03949 | 8.57386 | 369 ft | 14 kts | 70° |
| 2026-04-07 19:29 | 50.03982 | 8.57523 | 376 ft | 14 kts | 70° |
| 2026-04-07 19:29 | 50.04017 | 8.57670 | 372 ft | 15 kts | 69° |
| 2026-04-07 19:29 | 50.04055 | 8.57830 | 374 ft | 16 kts | 70° |
| 2026-04-07 19:29 | 50.04096 | 8.58003 | 374 ft | 18 kts | 69° |
| 2026-04-07 19:30 | 50.04140 | 8.58185 | 378 ft | 18 kts | 69° |
| 2026-04-07 19:30 | 50.04186 | 8.58378 | 377 ft | 19 kts | 70° |
| 2026-04-07 19:30 | 50.04235 | 8.58580 | 375 ft | 21 kts | 69° |
| 2026-04-07 19:30 | 50.04285 | 8.58786 | 377 ft | 20 kts | 69° |
| 2026-04-07 19:31 | 50.04330 | 8.58976 | 381 ft | 18 kts | 70° |
| 2026-04-07 19:31 | 50.04374 | 8.59159 | 382 ft | 19 kts | 69° |
| 2026-04-07 19:31 | 50.04421 | 8.59354 | 381 ft | 18 kts | 70° |
| 2026-04-07 19:31 | 50.04501 | 8.59471 | 380 ft | 16 kts | 9° |
| 2026-04-07 19:32 | 50.04543 | 8.59469 | 379 ft | 0 kts | 357° |
| 2026-04-07 19:32 | 50.04550 | 8.59469 | 379 ft | 0 kts | 357° |
| 2026-04-07 19:33 | 50.04552 | 8.59469 | 379 ft | 2 kts | 356° |
| 2026-04-07 19:34 | 50.04590 | 8.59465 | 378 ft | 9 kts | 356° |
| 2026-04-07 19:34 | 50.04663 | 8.59454 | 378 ft | 12 kts | 350° |
| 2026-04-07 19:34 | 50.04747 | 8.59416 | 378 ft | 13 kts | 341° |
| 2026-04-07 19:34 | 50.04845 | 8.59366 | 378 ft | 16 kts | 351° |
| 2026-04-07 19:35 | 50.04957 | 8.59361 | 376 ft | 17 kts | 342° |
| 2026-04-07 19:35 | 50.05066 | 8.59275 | 371 ft | 17 kts | 305° |
| 2026-04-07 19:35 | 50.05064 | 8.59148 | 367 ft | 12 kts | 250° |
| 2026-04-07 19:35 | 50.05035 | 8.59022 | 369 ft | 13 kts | 250° |
| 2026-04-07 19:36 | 50.05003 | 8.58889 | 368 ft | 15 kts | 250° |
| 2026-04-07 19:36 | 50.04971 | 8.58738 | 370 ft | 11 kts | 271° |
| 2026-04-07 19:36 | 50.05003 | 8.58667 | 368 ft | 8 kts | 324° |
| 2026-04-07 19:36 | 50.05026 | 8.58650 | 365 ft | 1 kts | 342° |
| 2026-04-07 19:37 | 50.05033 | 8.58647 | 367 ft | 2 kts | 342° |
| 2026-04-07 19:37 | 50.05045 | 8.58640 | 365 ft | 0 kts | 340° |
| 2026-04-07 19:38 | 50.05046 | 8.58639 | 365 ft | 0 kts | 340° |